<?xml version='1.0' encoding='UTF-8'?>
<gpx xmlns="http://www.topografix.com/GPX/1/1" creator="www.balnam.be" version="1.1" xmlns:xsi="http://www.w3.org/2001/XMLSchema-instance" xsi:schemaLocation="http://www.topografix.com/GPX/1/1 http://www.topografix.com/GPX/1/1/gpx.xsd">
<trk>
<name>nvssg1</name>
<cmt>v</cmt>
<desc>Sugny Chemin n°1 </desc>
<link href="https://chemins.be/sugny/chemin/1"/><trkseg>
<trkpt lat="49.794520" lon="4.938923"><time>2026-05-02T21:39:54Z</time></trkpt>
<trkpt lat="49.794113" lon="4.938837"><time>2026-05-02T21:49:54Z</time></trkpt>
<trkpt lat="49.793997" lon="4.936275"><time>2026-05-02T21:59:54Z</time></trkpt>
<trkpt lat="49.793910" lon="4.934360"><time>2026-05-02T22:09:54Z</time></trkpt>
<trkpt lat="49.793264" lon="4.932743"><time>2026-05-02T22:19:54Z</time></trkpt>
<trkpt lat="49.791402" lon="4.930927"><time>2026-05-02T22:29:54Z</time></trkpt>
<trkpt lat="49.789034" lon="4.929467"><time>2026-05-02T22:39:54Z</time></trkpt>
<trkpt lat="49.788166" lon="4.927336"><time>2026-05-02T22:49:54Z</time></trkpt>
</trkseg>
</trk>
<trk>
<name>nvssg10</name>
<cmt>v</cmt>
<desc>Sugny Chemin n°10 </desc>
<link href="https://chemins.be/sugny/chemin/10"/><trkseg>
<trkpt lat="49.812626" lon="4.923172"><time>2026-05-02T21:39:54Z</time></trkpt>
<trkpt lat="49.812865" lon="4.923884"><time>2026-05-02T21:49:54Z</time></trkpt>
<trkpt lat="49.813171" lon="4.923804"><time>2026-05-02T21:59:54Z</time></trkpt>
<trkpt lat="49.813387" lon="4.923765"><time>2026-05-02T22:09:54Z</time></trkpt>
<trkpt lat="49.813791" lon="4.923936"><time>2026-05-02T22:19:54Z</time></trkpt>
<trkpt lat="49.814425" lon="4.924860"><time>2026-05-02T22:29:54Z</time></trkpt>
<trkpt lat="49.814732" lon="4.928351"><time>2026-05-02T22:39:54Z</time></trkpt>
<trkpt lat="49.814861" lon="4.929603"><time>2026-05-02T22:49:54Z</time></trkpt>
<trkpt lat="49.815176" lon="4.929440"><time>2026-05-02T22:59:54Z</time></trkpt>
<trkpt lat="49.815641" lon="4.930016"><time>2026-05-02T23:09:54Z</time></trkpt>
<trkpt lat="49.816051" lon="4.930673"><time>2026-05-02T23:19:54Z</time></trkpt>
<trkpt lat="49.816949" lon="4.933054"><time>2026-05-02T23:29:54Z</time></trkpt>
<trkpt lat="49.817724" lon="4.934574"><time>2026-05-02T23:39:54Z</time></trkpt>
<trkpt lat="49.818217" lon="4.935389"><time>2026-05-02T23:49:54Z</time></trkpt>
<trkpt lat="49.818040" lon="4.936831"><time>2026-05-02T23:59:54Z</time></trkpt>
<trkpt lat="49.817254" lon="4.938591"><time>2026-05-03T00:09:54Z</time></trkpt>
<trkpt lat="49.817026" lon="4.942084"><time>2026-05-03T00:19:54Z</time></trkpt>
</trkseg>
</trk>
<trk>
<name>nvssg11</name>
<cmt>v</cmt>
<desc>Sugny Chemin n°11 </desc>
<link href="https://chemins.be/sugny/chemin/11"/><trkseg>
<trkpt lat="49.823879" lon="4.935799"><time>2026-05-02T21:39:54Z</time></trkpt>
<trkpt lat="49.822181" lon="4.932816"><time>2026-05-02T21:49:54Z</time></trkpt>
<trkpt lat="49.821707" lon="4.932296"><time>2026-05-02T21:59:54Z</time></trkpt>
<trkpt lat="49.821139" lon="4.930830"><time>2026-05-02T22:09:54Z</time></trkpt>
<trkpt lat="49.821107" lon="4.930066"><time>2026-05-02T22:19:54Z</time></trkpt>
<trkpt lat="49.820397" lon="4.925504"><time>2026-05-02T22:29:54Z</time></trkpt>
<trkpt lat="49.820119" lon="4.923516"><time>2026-05-02T22:39:54Z</time></trkpt>
<trkpt lat="49.820132" lon="4.922017"><time>2026-05-02T22:49:54Z</time></trkpt>
<trkpt lat="49.820139" lon="4.921167"><time>2026-05-02T22:59:54Z</time></trkpt>
<trkpt lat="49.819565" lon="4.920427"><time>2026-05-02T23:09:54Z</time></trkpt>
<trkpt lat="49.819732" lon="4.919332"><time>2026-05-02T23:19:54Z</time></trkpt>
<trkpt lat="49.819597" lon="4.917744"><time>2026-05-02T23:29:54Z</time></trkpt>
<trkpt lat="49.819392" lon="4.916720"><time>2026-05-02T23:39:54Z</time></trkpt>
<trkpt lat="49.817973" lon="4.914536"><time>2026-05-02T23:49:54Z</time></trkpt>
<trkpt lat="49.817462" lon="4.912112"><time>2026-05-02T23:59:54Z</time></trkpt>
<trkpt lat="49.816452" lon="4.907167"><time>2026-05-03T00:09:54Z</time></trkpt>
<trkpt lat="49.816462" lon="4.905055"><time>2026-05-03T00:19:54Z</time></trkpt>
</trkseg>
</trk>
<trk>
<name>nvssg12</name>
<cmt>v</cmt>
<desc>Sugny Chemin n°12 </desc>
<link href="https://chemins.be/sugny/chemin/12"/><trkseg>
<trkpt lat="49.824720" lon="4.930302"><time>2026-05-02T21:39:54Z</time></trkpt>
<trkpt lat="49.824031" lon="4.931406"><time>2026-05-02T21:49:54Z</time></trkpt>
</trkseg></trk>
<trk>
<name>nvssg12</name>
<cmt>d</cmt>
<desc>Sugny Chemin n°12 </desc>
<link href="https://chemins.be/sugny/chemin/12"/><trkseg>
<trkpt lat="49.824031" lon="4.931406"><time>2026-05-02T21:49:54Z</time></trkpt>
<trkpt lat="49.823356" lon="4.931565"><time>2026-05-02T21:59:54Z</time></trkpt>
<trkpt lat="49.821134" lon="4.930052"><time>2026-05-02T22:09:54Z</time></trkpt>
<trkpt lat="49.820488" lon="4.929697"><time>2026-05-02T22:19:54Z</time></trkpt>
<trkpt lat="49.820094" lon="4.929111"><time>2026-05-02T22:29:54Z</time></trkpt>
</trkseg></trk>
<trk>
<name>nvssg12</name>
<cmt>v</cmt>
<desc>Sugny Chemin n°12 </desc>
<link href="https://chemins.be/sugny/chemin/12"/><trkseg>
<trkpt lat="49.820094" lon="4.929111"><time>2026-05-02T22:29:54Z</time></trkpt>
<trkpt lat="49.819832" lon="4.928809"><time>2026-05-02T22:39:54Z</time></trkpt>
<trkpt lat="49.818454" lon="4.928423"><time>2026-05-02T22:49:54Z</time></trkpt>
<trkpt lat="49.817894" lon="4.928475"><time>2026-05-02T22:59:54Z</time></trkpt>
<trkpt lat="49.816358" lon="4.928676"><time>2026-05-02T23:09:54Z</time></trkpt>
<trkpt lat="49.813661" lon="4.930409"><time>2026-05-02T23:19:54Z</time></trkpt>
<trkpt lat="49.812572" lon="4.930522"><time>2026-05-02T23:29:54Z</time></trkpt>
<trkpt lat="49.812184" lon="4.930962"><time>2026-05-02T23:39:54Z</time></trkpt>
<trkpt lat="49.812180" lon="4.932260"><time>2026-05-02T23:49:54Z</time></trkpt>
<trkpt lat="49.811585" lon="4.934084"><time>2026-05-02T23:59:54Z</time></trkpt>
<trkpt lat="49.810380" lon="4.934986"><time>2026-05-03T00:09:54Z</time></trkpt>
<trkpt lat="49.805187" lon="4.935973"><time>2026-05-03T00:19:54Z</time></trkpt>
<trkpt lat="49.804389" lon="4.935754"><time>2026-05-03T00:29:54Z</time></trkpt>
<trkpt lat="49.800243" lon="4.934621"><time>2026-05-03T00:39:54Z</time></trkpt>
<trkpt lat="49.797404" lon="4.934170"><time>2026-05-03T00:49:54Z</time></trkpt>
</trkseg>
</trk>
<trk>
<name>nvssg13</name>
<cmt>v</cmt>
<desc>Sugny Chemin n°13 </desc>
<link href="https://chemins.be/sugny/chemin/13"/><trkseg>
<trkpt lat="49.820632" lon="4.904876"><time>2026-05-02T21:39:54Z</time></trkpt>
<trkpt lat="49.820903" lon="4.905846"><time>2026-05-02T21:49:54Z</time></trkpt>
<trkpt lat="49.821507" lon="4.906541"><time>2026-05-02T21:59:54Z</time></trkpt>
<trkpt lat="49.822603" lon="4.909906"><time>2026-05-02T22:09:54Z</time></trkpt>
<trkpt lat="49.822847" lon="4.911073"><time>2026-05-02T22:19:54Z</time></trkpt>
<trkpt lat="49.822989" lon="4.912675"><time>2026-05-02T22:29:54Z</time></trkpt>
<trkpt lat="49.823274" lon="4.913164"><time>2026-05-02T22:39:54Z</time></trkpt>
<trkpt lat="49.824090" lon="4.913729"><time>2026-05-02T22:49:54Z</time></trkpt>
<trkpt lat="49.824437" lon="4.914525"><time>2026-05-02T22:59:54Z</time></trkpt>
<trkpt lat="49.824604" lon="4.917168"><time>2026-05-02T23:09:54Z</time></trkpt>
<trkpt lat="49.824756" lon="4.917406"><time>2026-05-02T23:19:54Z</time></trkpt>
<trkpt lat="49.825709" lon="4.917319"><time>2026-05-02T23:29:54Z</time></trkpt>
<trkpt lat="49.825915" lon="4.917530"><time>2026-05-02T23:39:54Z</time></trkpt>
<trkpt lat="49.826426" lon="4.917745"><time>2026-05-02T23:49:54Z</time></trkpt>
</trkseg>
</trk>
<trk>
<name>nvssg14</name>
<cmt>v</cmt>
<desc>Sugny Chemin n°14 </desc>
<link href="https://chemins.be/sugny/chemin/14"/><trkseg>
<trkpt lat="49.820787" lon="4.904854"><time>2026-05-02T21:39:54Z</time></trkpt>
<trkpt lat="49.822974" lon="4.906323"><time>2026-05-02T21:49:54Z</time></trkpt>
<trkpt lat="49.824733" lon="4.905162"><time>2026-05-02T21:59:54Z</time></trkpt>
<trkpt lat="49.826278" lon="4.907208"><time>2026-05-02T22:09:54Z</time></trkpt>
<trkpt lat="49.826958" lon="4.907939"><time>2026-05-02T22:19:54Z</time></trkpt>
<trkpt lat="49.829258" lon="4.908423"><time>2026-05-02T22:29:54Z</time></trkpt>
<trkpt lat="49.829819" lon="4.907707"><time>2026-05-02T22:39:54Z</time></trkpt>
<trkpt lat="49.830925" lon="4.907608"><time>2026-05-02T22:49:54Z</time></trkpt>
<trkpt lat="49.831540" lon="4.908378"><time>2026-05-02T22:59:54Z</time></trkpt>
<trkpt lat="49.832698" lon="4.910964"><time>2026-05-02T23:09:54Z</time></trkpt>
<trkpt lat="49.833324" lon="4.913654"><time>2026-05-02T23:19:54Z</time></trkpt>
<trkpt lat="49.833445" lon="4.914545"><time>2026-05-02T23:29:54Z</time></trkpt>
<trkpt lat="49.833827" lon="4.915508"><time>2026-05-02T23:39:54Z</time></trkpt>
</trkseg>
</trk>
<trk>
<name>nvssg15</name>
<cmt>v</cmt>
<desc>Sugny Chemin n°15 </desc>
<link href="https://chemins.be/sugny/chemin/15"/><trkseg>
<trkpt lat="49.831526" lon="4.908330"><time>2026-05-02T21:39:54Z</time></trkpt>
<trkpt lat="49.831186" lon="4.906431"><time>2026-05-02T21:49:54Z</time></trkpt>
<trkpt lat="49.831072" lon="4.905953"><time>2026-05-02T21:59:54Z</time></trkpt>
<trkpt lat="49.829736" lon="4.905127"><time>2026-05-02T22:09:54Z</time></trkpt>
<trkpt lat="49.828878" lon="4.904930"><time>2026-05-02T22:19:54Z</time></trkpt>
<trkpt lat="49.827483" lon="4.905401"><time>2026-05-02T22:29:54Z</time></trkpt>
<trkpt lat="49.826121" lon="4.904441"><time>2026-05-02T22:39:54Z</time></trkpt>
<trkpt lat="49.825376" lon="4.904168"><time>2026-05-02T22:49:54Z</time></trkpt>
<trkpt lat="49.825151" lon="4.904235"><time>2026-05-02T22:59:54Z</time></trkpt>
<trkpt lat="49.824786" lon="4.905190"><time>2026-05-02T23:09:54Z</time></trkpt>
</trkseg>
</trk>
<trk>
<name>nvssg16</name>
<cmt>v</cmt>
<desc>Sugny Chemin n°16 </desc>
<link href="https://chemins.be/sugny/chemin/16"/><trkseg>
<trkpt lat="49.815737" lon="4.900490"><time>2026-05-02T21:39:54Z</time></trkpt>
<trkpt lat="49.816309" lon="4.901094"><time>2026-05-02T21:49:54Z</time></trkpt>
<trkpt lat="49.816962" lon="4.901782"><time>2026-05-02T21:59:54Z</time></trkpt>
<trkpt lat="49.817184" lon="4.902340"><time>2026-05-02T22:09:54Z</time></trkpt>
</trkseg>
</trk>
<trk>
<name>nvssg17</name>
<cmt>v</cmt>
<desc>Sugny Chemin n°17 Rue des Soupirs</desc>
<link href="https://chemins.be/sugny/chemin/17"/><trkseg>
<trkpt lat="49.820086" lon="4.901010"><time>2026-05-02T21:39:54Z</time></trkpt>
<trkpt lat="49.821871" lon="4.901753"><time>2026-05-02T21:49:54Z</time></trkpt>
<trkpt lat="49.823848" lon="4.902150"><time>2026-05-02T21:59:54Z</time></trkpt>
<trkpt lat="49.825189" lon="4.901679"><time>2026-05-02T22:09:54Z</time></trkpt>
<trkpt lat="49.826287" lon="4.901524"><time>2026-05-02T22:19:54Z</time></trkpt>
</trkseg>
</trk>
<trk>
<name>nvssg18</name>
<cmt>v</cmt>
<desc>Sugny Chemin n°18 </desc>
<link href="https://chemins.be/sugny/chemin/18"/><trkseg>
<trkpt lat="49.819420" lon="4.901128"><time>2026-05-02T21:39:54Z</time></trkpt>
<trkpt lat="49.819840" lon="4.903620"><time>2026-05-02T21:49:54Z</time></trkpt>
</trkseg>
</trk>
<trk>
<name>nvssg19</name>
<cmt>q</cmt>
<desc>Sugny Chemin n°19 </desc>
<link href="https://chemins.be/sugny/chemin/19"/><trkseg>
<trkpt lat="49.829317" lon="4.887756"><time>2026-05-02T21:39:54Z</time></trkpt>
<trkpt lat="49.830812" lon="4.887230"><time>2026-05-02T21:49:54Z</time></trkpt>
<trkpt lat="49.832974" lon="4.888324"><time>2026-05-02T21:59:54Z</time></trkpt>
<trkpt lat="49.834063" lon="4.888044"><time>2026-05-02T22:09:54Z</time></trkpt>
<trkpt lat="49.835390" lon="4.888948"><time>2026-05-02T22:19:54Z</time></trkpt>
<trkpt lat="49.836420" lon="4.889640"><time>2026-05-02T22:29:54Z</time></trkpt>
<trkpt lat="49.837294" lon="4.891179"><time>2026-05-02T22:39:54Z</time></trkpt>
<trkpt lat="49.840221" lon="4.894241"><time>2026-05-02T22:49:54Z</time></trkpt>
</trkseg>
</trk>
<trk>
<name>nvssg2</name>
<cmt>v</cmt>
<desc>Sugny Chemin n°2 </desc>
<link href="https://chemins.be/sugny/chemin/2"/><trkseg>
<trkpt lat="49.788792" lon="4.924911"><time>2026-05-02T21:39:54Z</time></trkpt>
<trkpt lat="49.787829" lon="4.925066"><time>2026-05-02T21:49:54Z</time></trkpt>
</trkseg>
</trk>
<trk>
<name>nvssg20</name>
<cmt>r</cmt>
<desc>Sugny Chemin n°20 La Bonne Idée</desc>
<link href="https://chemins.be/sugny/chemin/20"/><trkseg>
<trkpt lat="49.819095" lon="4.895622"><time>2026-05-02T21:39:54Z</time></trkpt>
<trkpt lat="49.819464" lon="4.895431"><time>2026-05-02T21:49:54Z</time></trkpt>
<trkpt lat="49.820380" lon="4.895691"><time>2026-05-02T21:59:54Z</time></trkpt>
<trkpt lat="49.821370" lon="4.895577"><time>2026-05-02T22:09:54Z</time></trkpt>
<trkpt lat="49.822547" lon="4.895576"><time>2026-05-02T22:19:54Z</time></trkpt>
<trkpt lat="49.823259" lon="4.895306"><time>2026-05-02T22:29:54Z</time></trkpt>
<trkpt lat="49.824784" lon="4.894155"><time>2026-05-02T22:39:54Z</time></trkpt>
</trkseg>
</trk>
<trk>
<name>nvssg22</name>
<cmt>d</cmt>
<desc>Sugny Chemin n°22 </desc>
<link href="https://chemins.be/sugny/chemin/22"/><trkseg>
<trkpt lat="49.837258" lon="4.891234"><time>2026-05-02T21:39:54Z</time></trkpt>
<trkpt lat="49.837580" lon="4.893545"><time>2026-05-02T21:49:54Z</time></trkpt>
<trkpt lat="49.837522" lon="4.894531"><time>2026-05-02T21:59:54Z</time></trkpt>
<trkpt lat="49.837453" lon="4.895796"><time>2026-05-02T22:09:54Z</time></trkpt>
<trkpt lat="49.838219" lon="4.897375"><time>2026-05-02T22:19:54Z</time></trkpt>
<trkpt lat="49.838982" lon="4.897620"><time>2026-05-02T22:29:54Z</time></trkpt>
<trkpt lat="49.839510" lon="4.898251"><time>2026-05-02T22:39:54Z</time></trkpt>
<trkpt lat="49.840664" lon="4.901350"><time>2026-05-02T22:49:54Z</time></trkpt>
<trkpt lat="49.840999" lon="4.902911"><time>2026-05-02T22:59:54Z</time></trkpt>
<trkpt lat="49.841692" lon="4.904615"><time>2026-05-02T23:09:54Z</time></trkpt>
<trkpt lat="49.841891" lon="4.906327"><time>2026-05-02T23:19:54Z</time></trkpt>
</trkseg>
</trk>
<trk>
<name>nvssg23</name>
<cmt>d</cmt>
<desc>Sugny Chemin n°23 </desc>
<link href="https://chemins.be/sugny/chemin/23"/><trkseg>
<trkpt lat="49.837390" lon="4.895934"><time>2026-05-02T21:39:54Z</time></trkpt>
<trkpt lat="49.836260" lon="4.899174"><time>2026-05-02T21:49:54Z</time></trkpt>
<trkpt lat="49.836624" lon="4.903891"><time>2026-05-02T21:59:54Z</time></trkpt>
<trkpt lat="49.837267" lon="4.906762"><time>2026-05-02T22:09:54Z</time></trkpt>
<trkpt lat="49.838274" lon="4.908830"><time>2026-05-02T22:19:54Z</time></trkpt>
</trkseg>
</trk>
<trk>
<name>nvssg25</name>
<cmt>v</cmt>
<desc>Sugny Chemin n°25 </desc>
<link href="https://chemins.be/sugny/chemin/25"/><trkseg>
<trkpt lat="49.822101" lon="4.884968"><time>2026-05-02T21:39:54Z</time></trkpt>
<trkpt lat="49.821493" lon="4.884142"><time>2026-05-02T21:49:54Z</time></trkpt>
<trkpt lat="49.820670" lon="4.883396"><time>2026-05-02T21:59:54Z</time></trkpt>
</trkseg>
</trk>
<trk>
<name>nvssg26</name>
<cmt>d</cmt>
<desc>Sugny Chemin n°26 </desc>
<link href="https://chemins.be/sugny/chemin/26"/><trkseg>
<trkpt lat="49.835623" lon="4.889089"><time>2026-05-02T21:39:54Z</time></trkpt>
<trkpt lat="49.834766" lon="4.887773"><time>2026-05-02T21:49:54Z</time></trkpt>
<trkpt lat="49.834223" lon="4.886558"><time>2026-05-02T21:59:54Z</time></trkpt>
<trkpt lat="49.833596" lon="4.885912"><time>2026-05-02T22:09:54Z</time></trkpt>
<trkpt lat="49.833075" lon="4.885795"><time>2026-05-02T22:19:54Z</time></trkpt>
<trkpt lat="49.832314" lon="4.885147"><time>2026-05-02T22:29:54Z</time></trkpt>
</trkseg></trk>
<trk>
<name>nvssg26</name>
<cmt>v</cmt>
<desc>Sugny Chemin n°26 </desc>
<link href="https://chemins.be/sugny/chemin/26"/><trkseg>
<trkpt lat="49.832314" lon="4.885147"><time>2026-05-02T22:29:54Z</time></trkpt>
<trkpt lat="49.831034" lon="4.883841"><time>2026-05-02T22:39:54Z</time></trkpt>
<trkpt lat="49.830418" lon="4.882875"><time>2026-05-02T22:49:54Z</time></trkpt>
<trkpt lat="49.828904" lon="4.881608"><time>2026-05-02T22:59:54Z</time></trkpt>
</trkseg>
</trk>
<trk>
<name>nvssg27</name>
<cmt>v</cmt>
<desc>Sugny Chemin n°27 </desc>
<link href="https://chemins.be/sugny/chemin/27"/><trkseg>
<trkpt lat="49.844631" lon="4.875103"><time>2026-05-02T21:39:54Z</time></trkpt>
<trkpt lat="49.840694" lon="4.874978"><time>2026-05-02T21:49:54Z</time></trkpt>
<trkpt lat="49.838585" lon="4.878111"><time>2026-05-02T21:59:54Z</time></trkpt>
<trkpt lat="49.838361" lon="4.879972"><time>2026-05-02T22:09:54Z</time></trkpt>
<trkpt lat="49.837286" lon="4.883144"><time>2026-05-02T22:19:54Z</time></trkpt>
</trkseg></trk>
<trk>
<name>nvssg27</name>
<cmt>q</cmt>
<desc>Sugny Chemin n°27 </desc>
<link href="https://chemins.be/sugny/chemin/27"/><trkseg>
<trkpt lat="49.837286" lon="4.883144"><time>2026-05-02T22:19:54Z</time></trkpt>
<trkpt lat="49.837033" lon="4.883475"><time>2026-05-02T22:29:54Z</time></trkpt>
<trkpt lat="49.836588" lon="4.884429"><time>2026-05-02T22:39:54Z</time></trkpt>
<trkpt lat="49.835605" lon="4.885072"><time>2026-05-02T22:49:54Z</time></trkpt>
<trkpt lat="49.834803" lon="4.885522"><time>2026-05-02T22:59:54Z</time></trkpt>
<trkpt lat="49.833120" lon="4.885837"><time>2026-05-02T23:09:54Z</time></trkpt>
<trkpt lat="49.832489" lon="4.886136"><time>2026-05-02T23:19:54Z</time></trkpt>
<trkpt lat="49.831599" lon="4.886252"><time>2026-05-02T23:29:54Z</time></trkpt>
<trkpt lat="49.830906" lon="4.886286"><time>2026-05-02T23:39:54Z</time></trkpt>
</trkseg>
</trk>
<trk>
<name>nvssg29</name>
<cmt>q</cmt>
<desc>Sugny Chemin n°29 </desc>
<link href="https://chemins.be/sugny/chemin/29"/><trkseg>
<trkpt lat="49.838467" lon="4.886354"><time>2026-05-02T21:39:54Z</time></trkpt>
<trkpt lat="49.837713" lon="4.886165"><time>2026-05-02T21:49:54Z</time></trkpt>
<trkpt lat="49.835381" lon="4.884847"><time>2026-05-02T21:59:54Z</time></trkpt>
<trkpt lat="49.834503" lon="4.884198"><time>2026-05-02T22:09:54Z</time></trkpt>
<trkpt lat="49.833564" lon="4.883307"><time>2026-05-02T22:19:54Z</time></trkpt>
</trkseg></trk>
<trk>
<name>nvssg29</name>
<cmt>v</cmt>
<desc>Sugny Chemin n°29 </desc>
<link href="https://chemins.be/sugny/chemin/29"/><trkseg>
<trkpt lat="49.833564" lon="4.883307"><time>2026-05-02T22:19:54Z</time></trkpt>
<trkpt lat="49.832231" lon="4.882377"><time>2026-05-02T22:29:54Z</time></trkpt>
<trkpt lat="49.830871" lon="4.882418"><time>2026-05-02T22:39:54Z</time></trkpt>
<trkpt lat="49.830622" lon="4.882890"><time>2026-05-02T22:49:54Z</time></trkpt>
</trkseg>
</trk>
<trk>
<name>nvssg3</name>
<cmt>d</cmt>
<desc>Sugny Chemin n°3 </desc>
<link href="https://chemins.be/sugny/chemin/3"/><trkseg>
<trkpt lat="49.801196" lon="4.910552"><time>2026-05-02T21:39:54Z</time></trkpt>
<trkpt lat="49.801230" lon="4.911081"><time>2026-05-02T21:49:54Z</time></trkpt>
<trkpt lat="49.800810" lon="4.912243"><time>2026-05-02T21:59:54Z</time></trkpt>
<trkpt lat="49.798870" lon="4.915777"><time>2026-05-02T22:09:54Z</time></trkpt>
<trkpt lat="49.798552" lon="4.916440"><time>2026-05-02T22:19:54Z</time></trkpt>
<trkpt lat="49.797667" lon="4.917291"><time>2026-05-02T22:29:54Z</time></trkpt>
<trkpt lat="49.797061" lon="4.917881"><time>2026-05-02T22:39:54Z</time></trkpt>
<trkpt lat="49.796530" lon="4.919847"><time>2026-05-02T22:49:54Z</time></trkpt>
<trkpt lat="49.796019" lon="4.921453"><time>2026-05-02T22:59:54Z</time></trkpt>
<trkpt lat="49.795189" lon="4.923846"><time>2026-05-02T23:09:54Z</time></trkpt>
<trkpt lat="49.795109" lon="4.925512"><time>2026-05-02T23:19:54Z</time></trkpt>
<trkpt lat="49.794491" lon="4.927046"><time>2026-05-02T23:29:54Z</time></trkpt>
<trkpt lat="49.793864" lon="4.933761"><time>2026-05-02T23:39:54Z</time></trkpt>
</trkseg>
</trk>
<trk>
<name>nvssg30</name>
<cmt>q</cmt>
<desc>Sugny Chemin n°30 </desc>
<link href="https://chemins.be/sugny/chemin/30"/><trkseg>
<trkpt lat="49.819576" lon="4.920191"><time>2026-05-02T21:39:54Z</time></trkpt>
<trkpt lat="49.820312" lon="4.920797"><time>2026-05-02T21:49:54Z</time></trkpt>
</trkseg>
</trk>
<trk>
<name>nvssg31</name>
<cmt>v</cmt>
<desc>Sugny Chemin n°31 </desc>
<link href="https://chemins.be/sugny/chemin/31"/><trkseg>
<trkpt lat="49.826663" lon="4.877021"><time>2026-05-02T21:39:54Z</time></trkpt>
<trkpt lat="49.827317" lon="4.876905"><time>2026-05-02T21:49:54Z</time></trkpt>
<trkpt lat="49.828576" lon="4.877838"><time>2026-05-02T21:59:54Z</time></trkpt>
<trkpt lat="49.829601" lon="4.877967"><time>2026-05-02T22:09:54Z</time></trkpt>
<trkpt lat="49.830548" lon="4.876348"><time>2026-05-02T22:19:54Z</time></trkpt>
<trkpt lat="49.831032" lon="4.876616"><time>2026-05-02T22:29:54Z</time></trkpt>
<trkpt lat="49.833433" lon="4.876311"><time>2026-05-02T22:39:54Z</time></trkpt>
<trkpt lat="49.834433" lon="4.876611"><time>2026-05-02T22:49:54Z</time></trkpt>
<trkpt lat="49.835533" lon="4.876261"><time>2026-05-02T22:59:54Z</time></trkpt>
<trkpt lat="49.835913" lon="4.875491"><time>2026-05-02T23:09:54Z</time></trkpt>
<trkpt lat="49.835173" lon="4.869050"><time>2026-05-02T23:19:54Z</time></trkpt>
</trkseg>
</trk>
<trk>
<name>nvssg32</name>
<cmt>r</cmt>
<desc>Sugny Chemin n°32 Rue du Vieux Moulin</desc>
<link href="https://chemins.be/sugny/chemin/32"/><trkseg>
<trkpt lat="49.844132" lon="4.880284"><time>2026-05-02T21:39:54Z</time></trkpt>
<trkpt lat="49.843233" lon="4.878133"><time>2026-05-02T21:49:54Z</time></trkpt>
<trkpt lat="49.842892" lon="4.878032"><time>2026-05-02T21:59:54Z</time></trkpt>
</trkseg></trk>
<trk>
<name>nvssg32</name>
<cmt>v</cmt>
<desc>Sugny Chemin n°32 Rue du Vieux Moulin</desc>
<link href="https://chemins.be/sugny/chemin/32"/><trkseg>
<trkpt lat="49.842892" lon="4.878032"><time>2026-05-02T21:59:54Z</time></trkpt>
<trkpt lat="49.840649" lon="4.875019"><time>2026-05-02T22:09:54Z</time></trkpt>
<trkpt lat="49.840158" lon="4.874194"><time>2026-05-02T22:19:54Z</time></trkpt>
<trkpt lat="49.839019" lon="4.873389"><time>2026-05-02T22:29:54Z</time></trkpt>
<trkpt lat="49.837132" lon="4.871131"><time>2026-05-02T22:39:54Z</time></trkpt>
<trkpt lat="49.835245" lon="4.869013"><time>2026-05-02T22:49:54Z</time></trkpt>
</trkseg>
</trk>
<trk>
<name>nvssg33</name>
<cmt>v</cmt>
<desc>Sugny Chemin n°33 </desc>
<link href="https://chemins.be/sugny/chemin/33"/><trkseg>
<trkpt lat="49.823319" lon="4.871793"><time>2026-05-02T21:39:54Z</time></trkpt>
<trkpt lat="49.824208" lon="4.870204"><time>2026-05-02T21:49:54Z</time></trkpt>
<trkpt lat="49.825406" lon="4.869647"><time>2026-05-02T21:59:54Z</time></trkpt>
<trkpt lat="49.825758" lon="4.869206"><time>2026-05-02T22:09:54Z</time></trkpt>
</trkseg>
</trk>
<trk>
<name>nvssg34</name>
<cmt>r</cmt>
<desc>Sugny Chemin n°34 Rue de la Mazure</desc>
<link href="https://chemins.be/sugny/chemin/34"/><trkseg>
<trkpt lat="49.824057" lon="4.873760"><time>2026-05-02T21:39:54Z</time></trkpt>
<trkpt lat="49.823640" lon="4.872533"><time>2026-05-02T21:49:54Z</time></trkpt>
<trkpt lat="49.823274" lon="4.871945"><time>2026-05-02T21:59:54Z</time></trkpt>
</trkseg></trk>
<trk>
<name>nvssg34</name>
<cmt>v</cmt>
<desc>Sugny Chemin n°34 Rue de la Mazure</desc>
<link href="https://chemins.be/sugny/chemin/34"/><trkseg>
<trkpt lat="49.823274" lon="4.871945"><time>2026-05-02T21:59:54Z</time></trkpt>
<trkpt lat="49.822264" lon="4.870656"><time>2026-05-02T22:09:54Z</time></trkpt>
</trkseg>
</trk>
<trk>
<name>nvssg35</name>
<cmt>v</cmt>
<desc>Sugny Chemin n°35 </desc>
<link href="https://chemins.be/sugny/chemin/35"/><trkseg>
<trkpt lat="49.822845" lon="4.880846"><time>2026-05-02T21:39:54Z</time></trkpt>
<trkpt lat="49.821706" lon="4.879752"><time>2026-05-02T21:49:54Z</time></trkpt>
</trkseg>
</trk>
<trk>
<name>nvssg36</name>
<cmt>r</cmt>
<desc>Sugny Chemin n°36 </desc>
<link href="https://chemins.be/sugny/chemin/36"/><trkseg>
<trkpt lat="49.824073" lon="4.874274"><time>2026-05-02T21:39:54Z</time></trkpt>
<trkpt lat="49.823755" lon="4.874278"><time>2026-05-02T21:49:54Z</time></trkpt>
<trkpt lat="49.823376" lon="4.874904"><time>2026-05-02T21:59:54Z</time></trkpt>
</trkseg></trk>
<trk>
<name>nvssg36</name>
<cmt>v</cmt>
<desc>Sugny Chemin n°36 </desc>
<link href="https://chemins.be/sugny/chemin/36"/><trkseg>
<trkpt lat="49.823376" lon="4.874904"><time>2026-05-02T21:59:54Z</time></trkpt>
<trkpt lat="49.822755" lon="4.875456"><time>2026-05-02T22:09:54Z</time></trkpt>
<trkpt lat="49.822419" lon="4.875465"><time>2026-05-02T22:19:54Z</time></trkpt>
<trkpt lat="49.821965" lon="4.875072"><time>2026-05-02T22:29:54Z</time></trkpt>
<trkpt lat="49.821549" lon="4.875131"><time>2026-05-02T22:39:54Z</time></trkpt>
<trkpt lat="49.820238" lon="4.875373"><time>2026-05-02T22:49:54Z</time></trkpt>
</trkseg>
</trk>
<trk>
<name>nvssg37</name>
<cmt>d</cmt>
<desc>Sugny Chemin n°37 </desc>
<link href="https://chemins.be/sugny/chemin/37"/><trkseg>
<trkpt lat="49.821615" lon="4.875096"><time>2026-05-02T21:39:54Z</time></trkpt>
<trkpt lat="49.821693" lon="4.875778"><time>2026-05-02T21:49:54Z</time></trkpt>
<trkpt lat="49.822057" lon="4.876630"><time>2026-05-02T21:59:54Z</time></trkpt>
</trkseg>
</trk>
<trk>
<name>nvssg38</name>
<cmt>v</cmt>
<desc>Sugny Chemin n°38 </desc>
<link href="https://chemins.be/sugny/chemin/38"/><trkseg>
<trkpt lat="49.824495" lon="4.876350"><time>2026-05-02T21:39:54Z</time></trkpt>
<trkpt lat="49.824233" lon="4.876778"><time>2026-05-02T21:49:54Z</time></trkpt>
</trkseg></trk>
<trk>
<name>nvssg38</name>
<cmt>d</cmt>
<desc>Sugny Chemin n°38 </desc>
<link href="https://chemins.be/sugny/chemin/38"/><trkseg>
<trkpt lat="49.824233" lon="4.876778"><time>2026-05-02T21:49:54Z</time></trkpt>
<trkpt lat="49.823857" lon="4.876385"><time>2026-05-02T21:59:54Z</time></trkpt>
<trkpt lat="49.823493" lon="4.877215"><time>2026-05-02T22:09:54Z</time></trkpt>
</trkseg></trk>
<trk>
<name>nvssg38</name>
<cmt>v</cmt>
<desc>Sugny Chemin n°38 </desc>
<link href="https://chemins.be/sugny/chemin/38"/><trkseg>
<trkpt lat="49.823493" lon="4.877215"><time>2026-05-02T22:09:54Z</time></trkpt>
<trkpt lat="49.823112" lon="4.877947"><time>2026-05-02T22:19:54Z</time></trkpt>
</trkseg>
</trk>
<trk>
<name>nvssg39</name>
<cmt>d</cmt>
<desc>Sugny Chemin n°39 </desc>
<link href="https://chemins.be/sugny/chemin/39"/><trkseg>
<trkpt lat="49.824251" lon="4.876778"><time>2026-05-02T21:39:54Z</time></trkpt>
<trkpt lat="49.824322" lon="4.876904"><time>2026-05-02T21:49:54Z</time></trkpt>
<trkpt lat="49.823766" lon="4.878496"><time>2026-05-02T21:59:54Z</time></trkpt>
<trkpt lat="49.823539" lon="4.879036"><time>2026-05-02T22:09:54Z</time></trkpt>
<trkpt lat="49.822967" lon="4.880350"><time>2026-05-02T22:19:54Z</time></trkpt>
</trkseg>
</trk>
<trk>
<name>nvssg40</name>
<cmt>d</cmt>
<desc>Sugny Chemin n°40 </desc>
<link href="https://chemins.be/sugny/chemin/40"/><trkseg>
<trkpt lat="49.822099" lon="4.885399"><time>2026-05-02T21:39:54Z</time></trkpt>
<trkpt lat="49.821762" lon="4.886312"><time>2026-05-02T21:49:54Z</time></trkpt>
<trkpt lat="49.821854" lon="4.887925"><time>2026-05-02T21:59:54Z</time></trkpt>
<trkpt lat="49.821641" lon="4.889257"><time>2026-05-02T22:09:54Z</time></trkpt>
<trkpt lat="49.821350" lon="4.890046"><time>2026-05-02T22:19:54Z</time></trkpt>
<trkpt lat="49.821142" lon="4.892281"><time>2026-05-02T22:29:54Z</time></trkpt>
</trkseg>
</trk>
<trk>
<name>nvssg41</name>
<cmt>v</cmt>
<desc>Sugny Chemin n°41 </desc>
<link href="https://chemins.be/sugny/chemin/41"/><trkseg>
<trkpt lat="49.821706" lon="4.888744"><time>2026-05-02T21:39:54Z</time></trkpt>
<trkpt lat="49.821071" lon="4.888070"><time>2026-05-02T21:49:54Z</time></trkpt>
<trkpt lat="49.819610" lon="4.887040"><time>2026-05-02T21:59:54Z</time></trkpt>
<trkpt lat="49.818571" lon="4.884333"><time>2026-05-02T22:09:54Z</time></trkpt>
<trkpt lat="49.817488" lon="4.883056"><time>2026-05-02T22:19:54Z</time></trkpt>
<trkpt lat="49.817588" lon="4.880973"><time>2026-05-02T22:29:54Z</time></trkpt>
<trkpt lat="49.817499" lon="4.880653"><time>2026-05-02T22:39:54Z</time></trkpt>
<trkpt lat="49.817219" lon="4.878899"><time>2026-05-02T22:49:54Z</time></trkpt>
<trkpt lat="49.817216" lon="4.877523"><time>2026-05-02T22:59:54Z</time></trkpt>
<trkpt lat="49.817158" lon="4.876522"><time>2026-05-02T23:09:54Z</time></trkpt>
<trkpt lat="49.816678" lon="4.875141"><time>2026-05-02T23:19:54Z</time></trkpt>
<trkpt lat="49.815719" lon="4.872588"><time>2026-05-02T23:29:54Z</time></trkpt>
<trkpt lat="49.815257" lon="4.871264"><time>2026-05-02T23:39:54Z</time></trkpt>
<trkpt lat="49.815003" lon="4.869649"><time>2026-05-02T23:49:54Z</time></trkpt>
<trkpt lat="49.814843" lon="4.869370"><time>2026-05-02T23:59:54Z</time></trkpt>
<trkpt lat="49.813813" lon="4.868400"><time>2026-05-03T00:09:54Z</time></trkpt>
<trkpt lat="49.812836" lon="4.867654"><time>2026-05-03T00:19:54Z</time></trkpt>
</trkseg>
</trk>
<trk>
<name>nvssg42</name>
<cmt>v</cmt>
<desc>Sugny Chemin n°42 </desc>
<link href="https://chemins.be/sugny/chemin/42"/><trkseg>
<trkpt lat="49.815681" lon="4.872539"><time>2026-05-02T21:39:54Z</time></trkpt>
<trkpt lat="49.816220" lon="4.873191"><time>2026-05-02T21:49:54Z</time></trkpt>
<trkpt lat="49.816327" lon="4.873359"><time>2026-05-02T21:59:54Z</time></trkpt>
</trkseg>
</trk>
<trk>
<name>nvssg43</name>
<cmt>v</cmt>
<desc>Sugny Chemin n°43 </desc>
<link href="https://chemins.be/sugny/chemin/43"/><trkseg>
<trkpt lat="49.812052" lon="4.868146"><time>2026-05-02T21:39:54Z</time></trkpt>
<trkpt lat="49.812278" lon="4.867759"><time>2026-05-02T21:49:54Z</time></trkpt>
<trkpt lat="49.812845" lon="4.867612"><time>2026-05-02T21:59:54Z</time></trkpt>
</trkseg></trk>
<trk>
<name>nvssg43</name>
<cmt>d</cmt>
<desc>Sugny Chemin n°43 </desc>
<link href="https://chemins.be/sugny/chemin/43"/><trkseg>
<trkpt lat="49.812845" lon="4.867612"><time>2026-05-02T21:59:54Z</time></trkpt>
<trkpt lat="49.813450" lon="4.867035"><time>2026-05-02T22:09:54Z</time></trkpt>
</trkseg>
</trk>
<trk>
<name>nvssg44</name>
<cmt>r</cmt>
<desc>Sugny Chemin n°44 Rue de Bouillon</desc>
<link href="https://chemins.be/sugny/chemin/44"/><trkseg>
<trkpt lat="49.802879" lon="4.908265"><time>2026-05-02T21:39:54Z</time></trkpt>
<trkpt lat="49.803466" lon="4.911467"><time>2026-05-02T21:49:54Z</time></trkpt>
<trkpt lat="49.804529" lon="4.914827"><time>2026-05-02T21:59:54Z</time></trkpt>
</trkseg>
</trk>
<trk>
<name>nvssg47</name>
<cmt>v</cmt>
<desc>Sugny Sentier n°47 </desc>
<link href="https://chemins.be/sugny/sentier/47"/><trkseg>
<trkpt lat="49.811238" lon="4.871263"><time>2026-05-02T21:39:54Z</time></trkpt>
<trkpt lat="49.811380" lon="4.871751"><time>2026-05-02T21:49:54Z</time></trkpt>
<trkpt lat="49.811242" lon="4.872403"><time>2026-05-02T21:59:54Z</time></trkpt>
<trkpt lat="49.811006" lon="4.872956"><time>2026-05-02T22:09:54Z</time></trkpt>
<trkpt lat="49.810680" lon="4.873536"><time>2026-05-02T22:19:54Z</time></trkpt>
<trkpt lat="49.810569" lon="4.874202"><time>2026-05-02T22:29:54Z</time></trkpt>
<trkpt lat="49.811433" lon="4.877976"><time>2026-05-02T22:39:54Z</time></trkpt>
<trkpt lat="49.812048" lon="4.879205"><time>2026-05-02T22:49:54Z</time></trkpt>
</trkseg>
</trk>
<trk>
<name>nvssg48</name>
<cmt>v</cmt>
<desc>Sugny Chemin n°48 Rue de la Gare</desc>
<link href="https://chemins.be/sugny/chemin/48"/><trkseg>
<trkpt lat="49.813933" lon="4.891855"><time>2026-05-02T21:39:54Z</time></trkpt>
<trkpt lat="49.813665" lon="4.889518"><time>2026-05-02T21:49:54Z</time></trkpt>
<trkpt lat="49.813267" lon="4.888055"><time>2026-05-02T21:59:54Z</time></trkpt>
<trkpt lat="49.812550" lon="4.883518"><time>2026-05-02T22:09:54Z</time></trkpt>
<trkpt lat="49.812840" lon="4.880964"><time>2026-05-02T22:19:54Z</time></trkpt>
<trkpt lat="49.812380" lon="4.879417"><time>2026-05-02T22:29:54Z</time></trkpt>
<trkpt lat="49.812084" lon="4.879206"><time>2026-05-02T22:39:54Z</time></trkpt>
<trkpt lat="49.810518" lon="4.879578"><time>2026-05-02T22:49:54Z</time></trkpt>
<trkpt lat="49.809939" lon="4.878474"><time>2026-05-02T22:59:54Z</time></trkpt>
<trkpt lat="49.809239" lon="4.878161"><time>2026-05-02T23:09:54Z</time></trkpt>
<trkpt lat="49.808807" lon="4.878129"><time>2026-05-02T23:19:54Z</time></trkpt>
<trkpt lat="49.808684" lon="4.877572"><time>2026-05-02T23:29:54Z</time></trkpt>
<trkpt lat="49.808380" lon="4.877207"><time>2026-05-02T23:39:54Z</time></trkpt>
<trkpt lat="49.808159" lon="4.876316"><time>2026-05-02T23:49:54Z</time></trkpt>
<trkpt lat="49.808073" lon="4.875467"><time>2026-05-02T23:59:54Z</time></trkpt>
<trkpt lat="49.808345" lon="4.874970"><time>2026-05-03T00:09:54Z</time></trkpt>
<trkpt lat="49.808692" lon="4.873598"><time>2026-05-03T00:19:54Z</time></trkpt>
<trkpt lat="49.808912" lon="4.872850"><time>2026-05-03T00:29:54Z</time></trkpt>
<trkpt lat="49.809418" lon="4.872119"><time>2026-05-03T00:39:54Z</time></trkpt>
<trkpt lat="49.810765" lon="4.870480"><time>2026-05-03T00:49:54Z</time></trkpt>
</trkseg>
</trk>
<trk>
<name>nvssg49</name>
<cmt>d</cmt>
<desc>Sugny Chemin n°49 Rue de la Gare</desc>
<link href="https://chemins.be/sugny/chemin/49"/><trkseg>
<trkpt lat="49.809644" lon="4.885973"><time>2026-05-02T21:39:54Z</time></trkpt>
<trkpt lat="49.809628" lon="4.885556"><time>2026-05-02T21:49:54Z</time></trkpt>
<trkpt lat="49.807575" lon="4.882367"><time>2026-05-02T21:59:54Z</time></trkpt>
<trkpt lat="49.807542" lon="4.881616"><time>2026-05-02T22:09:54Z</time></trkpt>
<trkpt lat="49.808007" lon="4.880065"><time>2026-05-02T22:19:54Z</time></trkpt>
<trkpt lat="49.808706" lon="4.878683"><time>2026-05-02T22:29:54Z</time></trkpt>
<trkpt lat="49.808780" lon="4.878184"><time>2026-05-02T22:39:54Z</time></trkpt>
</trkseg>
</trk>
<trk>
<name>nvssg5</name>
<cmt>v</cmt>
<desc>Sugny Chemin n°5 </desc>
<link href="https://chemins.be/sugny/chemin/5"/><trkseg>
<trkpt lat="49.806593" lon="4.953916"><time>2026-05-02T21:39:54Z</time></trkpt>
<trkpt lat="49.805510" lon="4.953000"><time>2026-05-02T21:49:54Z</time></trkpt>
<trkpt lat="49.803870" lon="4.948465"><time>2026-05-02T21:59:54Z</time></trkpt>
<trkpt lat="49.804138" lon="4.943425"><time>2026-05-02T22:09:54Z</time></trkpt>
<trkpt lat="49.802620" lon="4.939587"><time>2026-05-02T22:19:54Z</time></trkpt>
<trkpt lat="49.801770" lon="4.936854"><time>2026-05-02T22:29:54Z</time></trkpt>
</trkseg></trk>
<trk>
<name>nvssg5</name>
<cmt>d</cmt>
<desc>Sugny Chemin n°5 </desc>
<link href="https://chemins.be/sugny/chemin/5"/><trkseg>
<trkpt lat="49.801770" lon="4.936854"><time>2026-05-02T22:29:54Z</time></trkpt>
<trkpt lat="49.801886" lon="4.935175"><time>2026-05-02T22:39:54Z</time></trkpt>
<trkpt lat="49.802621" lon="4.930141"><time>2026-05-02T22:49:54Z</time></trkpt>
<trkpt lat="49.802235" lon="4.928233"><time>2026-05-02T22:59:54Z</time></trkpt>
</trkseg></trk>
<trk>
<name>nvssg5</name>
<cmt>v</cmt>
<desc>Sugny Chemin n°5 </desc>
<link href="https://chemins.be/sugny/chemin/5"/><trkseg>
<trkpt lat="49.802235" lon="4.928233"><time>2026-05-02T22:59:54Z</time></trkpt>
<trkpt lat="49.802143" lon="4.927771"><time>2026-05-02T23:09:54Z</time></trkpt>
<trkpt lat="49.802323" lon="4.926412"><time>2026-05-02T23:19:54Z</time></trkpt>
</trkseg>
</trk>
<trk>
<name>nvssg50</name>
<cmt>v</cmt>
<desc>Sugny Chemin n°50 </desc>
<link href="https://chemins.be/sugny/chemin/50"/><trkseg>
<trkpt lat="49.813853" lon="4.891785"><time>2026-05-02T21:39:54Z</time></trkpt>
<trkpt lat="49.812459" lon="4.889825"><time>2026-05-02T21:49:54Z</time></trkpt>
<trkpt lat="49.811410" lon="4.889063"><time>2026-05-02T21:59:54Z</time></trkpt>
<trkpt lat="49.810695" lon="4.888180"><time>2026-05-02T22:09:54Z</time></trkpt>
<trkpt lat="49.810231" lon="4.887341"><time>2026-05-02T22:19:54Z</time></trkpt>
<trkpt lat="49.809993" lon="4.886422"><time>2026-05-02T22:29:54Z</time></trkpt>
<trkpt lat="49.809000" lon="4.885174"><time>2026-05-02T22:39:54Z</time></trkpt>
<trkpt lat="49.807408" lon="4.883462"><time>2026-05-02T22:49:54Z</time></trkpt>
<trkpt lat="49.806932" lon="4.883249"><time>2026-05-02T22:59:54Z</time></trkpt>
<trkpt lat="49.806639" lon="4.882565"><time>2026-05-02T23:09:54Z</time></trkpt>
<trkpt lat="49.806302" lon="4.881436"><time>2026-05-02T23:19:54Z</time></trkpt>
<trkpt lat="49.805307" lon="4.878717"><time>2026-05-02T23:29:54Z</time></trkpt>
<trkpt lat="49.804649" lon="4.877112"><time>2026-05-02T23:39:54Z</time></trkpt>
<trkpt lat="49.804242" lon="4.875719"><time>2026-05-02T23:49:54Z</time></trkpt>
<trkpt lat="49.804262" lon="4.875122"><time>2026-05-02T23:59:54Z</time></trkpt>
<trkpt lat="49.803738" lon="4.873616"><time>2026-05-03T00:09:54Z</time></trkpt>
<trkpt lat="49.803041" lon="4.872747"><time>2026-05-03T00:19:54Z</time></trkpt>
<trkpt lat="49.802216" lon="4.872155"><time>2026-05-03T00:29:54Z</time></trkpt>
<trkpt lat="49.801077" lon="4.871532"><time>2026-05-03T00:39:54Z</time></trkpt>
<trkpt lat="49.799028" lon="4.871469"><time>2026-05-03T00:49:54Z</time></trkpt>
<trkpt lat="49.796985" lon="4.867850"><time>2026-05-03T00:59:54Z</time></trkpt>
<trkpt lat="49.796314" lon="4.867428"><time>2026-05-03T01:09:54Z</time></trkpt>
<trkpt lat="49.794985" lon="4.866276"><time>2026-05-03T01:19:54Z</time></trkpt>
<trkpt lat="49.794488" lon="4.865018"><time>2026-05-03T01:29:54Z</time></trkpt>
<trkpt lat="49.793837" lon="4.863956"><time>2026-05-03T01:39:54Z</time></trkpt>
<trkpt lat="49.791100" lon="4.862692"><time>2026-05-03T01:49:54Z</time></trkpt>
<trkpt lat="49.789478" lon="4.861439"><time>2026-05-03T01:59:54Z</time></trkpt>
</trkseg>
</trk>
<trk>
<name>nvssg51</name>
<cmt>v</cmt>
<desc>Sugny Chemin n°51 </desc>
<link href="https://chemins.be/sugny/chemin/51"/><trkseg>
<trkpt lat="49.804631" lon="4.877015"><time>2026-05-02T21:39:54Z</time></trkpt>
<trkpt lat="49.804786" lon="4.876586"><time>2026-05-02T21:49:54Z</time></trkpt>
<trkpt lat="49.804757" lon="4.875155"><time>2026-05-02T21:59:54Z</time></trkpt>
<trkpt lat="49.805061" lon="4.873463"><time>2026-05-02T22:09:54Z</time></trkpt>
<trkpt lat="49.805287" lon="4.873229"><time>2026-05-02T22:19:54Z</time></trkpt>
<trkpt lat="49.805289" lon="4.872743"><time>2026-05-02T22:29:54Z</time></trkpt>
<trkpt lat="49.805012" lon="4.872268"><time>2026-05-02T22:39:54Z</time></trkpt>
<trkpt lat="49.805136" lon="4.870644"><time>2026-05-02T22:49:54Z</time></trkpt>
<trkpt lat="49.805282" lon="4.869523"><time>2026-05-02T22:59:54Z</time></trkpt>
<trkpt lat="49.805515" lon="4.868554"><time>2026-05-02T23:09:54Z</time></trkpt>
<trkpt lat="49.805587" lon="4.866217"><time>2026-05-02T23:19:54Z</time></trkpt>
<trkpt lat="49.805429" lon="4.865409"><time>2026-05-02T23:29:54Z</time></trkpt>
<trkpt lat="49.804741" lon="4.864416"><time>2026-05-02T23:39:54Z</time></trkpt>
<trkpt lat="49.804350" lon="4.863203"><time>2026-05-02T23:49:54Z</time></trkpt>
</trkseg>
</trk>
<trk>
<name>nvssg52</name>
<cmt>v</cmt>
<desc>Sugny Chemin n°52 </desc>
<link href="https://chemins.be/sugny/chemin/52"/><trkseg>
<trkpt lat="49.811022" lon="4.868151"><time>2026-05-02T21:39:54Z</time></trkpt>
<trkpt lat="49.810872" lon="4.868111"><time>2026-05-02T21:49:54Z</time></trkpt>
<trkpt lat="49.810802" lon="4.867281"><time>2026-05-02T21:59:54Z</time></trkpt>
<trkpt lat="49.810432" lon="4.866511"><time>2026-05-02T22:09:54Z</time></trkpt>
<trkpt lat="49.809722" lon="4.866000"><time>2026-05-02T22:19:54Z</time></trkpt>
<trkpt lat="49.809042" lon="4.865780"><time>2026-05-02T22:29:54Z</time></trkpt>
<trkpt lat="49.808332" lon="4.865120"><time>2026-05-02T22:39:54Z</time></trkpt>
<trkpt lat="49.808142" lon="4.865080"><time>2026-05-02T22:49:54Z</time></trkpt>
<trkpt lat="49.807942" lon="4.865480"><time>2026-05-02T22:59:54Z</time></trkpt>
<trkpt lat="49.807312" lon="4.866031"><time>2026-05-02T23:09:54Z</time></trkpt>
<trkpt lat="49.806097" lon="4.867928"><time>2026-05-02T23:19:54Z</time></trkpt>
<trkpt lat="49.805520" lon="4.868568"><time>2026-05-02T23:29:54Z</time></trkpt>
<trkpt lat="49.804952" lon="4.868591"><time>2026-05-02T23:39:54Z</time></trkpt>
<trkpt lat="49.802642" lon="4.868471"><time>2026-05-02T23:49:54Z</time></trkpt>
<trkpt lat="49.801662" lon="4.867541"><time>2026-05-02T23:59:54Z</time></trkpt>
<trkpt lat="49.801402" lon="4.867381"><time>2026-05-03T00:09:54Z</time></trkpt>
<trkpt lat="49.800318" lon="4.867843"><time>2026-05-03T00:19:54Z</time></trkpt>
<trkpt lat="49.799653" lon="4.867231"><time>2026-05-03T00:29:54Z</time></trkpt>
<trkpt lat="49.799265" lon="4.866663"><time>2026-05-03T00:39:54Z</time></trkpt>
<trkpt lat="49.798998" lon="4.865520"><time>2026-05-03T00:49:54Z</time></trkpt>
<trkpt lat="49.799062" lon="4.862200"><time>2026-05-03T00:59:54Z</time></trkpt>
<trkpt lat="49.798872" lon="4.861480"><time>2026-05-03T01:09:54Z</time></trkpt>
<trkpt lat="49.798292" lon="4.860650"><time>2026-05-03T01:19:54Z</time></trkpt>
<trkpt lat="49.797152" lon="4.859790"><time>2026-05-03T01:29:54Z</time></trkpt>
<trkpt lat="49.796682" lon="4.859050"><time>2026-05-03T01:39:54Z</time></trkpt>
</trkseg>
</trk>
<trk>
<name>nvssg53</name>
<cmt>v</cmt>
<desc>Sugny Chemin n°53 </desc>
<link href="https://chemins.be/sugny/chemin/53"/><trkseg>
<trkpt lat="49.810860" lon="4.867369"><time>2026-05-02T21:39:54Z</time></trkpt>
<trkpt lat="49.811117" lon="4.866038"><time>2026-05-02T21:49:54Z</time></trkpt>
</trkseg>
</trk>
<trk>
<name>nvssg54</name>
<cmt>v</cmt>
<desc>Sugny Chemin n°54 </desc>
<link href="https://chemins.be/sugny/chemin/54"/><trkseg>
<trkpt lat="49.807611" lon="4.866016"><time>2026-05-02T21:39:54Z</time></trkpt>
<trkpt lat="49.807210" lon="4.867220"><time>2026-05-02T21:49:54Z</time></trkpt>
<trkpt lat="49.806637" lon="4.868784"><time>2026-05-02T21:59:54Z</time></trkpt>
<trkpt lat="49.805989" lon="4.870958"><time>2026-05-02T22:09:54Z</time></trkpt>
</trkseg></trk>
<trk>
<name>nvssg54</name>
<cmt>d</cmt>
<desc>Sugny Chemin n°54 </desc>
<link href="https://chemins.be/sugny/chemin/54"/><trkseg>
<trkpt lat="49.805989" lon="4.870958"><time>2026-05-02T22:09:54Z</time></trkpt>
<trkpt lat="49.805220" lon="4.872089"><time>2026-05-02T22:19:54Z</time></trkpt>
<trkpt lat="49.804123" lon="4.874148"><time>2026-05-02T22:29:54Z</time></trkpt>
</trkseg>
</trk>
<trk>
<name>nvssg55</name>
<cmt>d</cmt>
<desc>Sugny Chemin n°55 </desc>
<link href="https://chemins.be/sugny/chemin/55"/><trkseg>
<trkpt lat="49.805880" lon="4.871068"><time>2026-05-02T21:39:54Z</time></trkpt>
<trkpt lat="49.805109" lon="4.870727"><time>2026-05-02T21:49:54Z</time></trkpt>
<trkpt lat="49.803639" lon="4.869683"><time>2026-05-02T21:59:54Z</time></trkpt>
<trkpt lat="49.802844" lon="4.868508"><time>2026-05-02T22:09:54Z</time></trkpt>
</trkseg>
</trk>
<trk>
<name>nvssg56</name>
<cmt>v</cmt>
<desc>Sugny Chemin n°56 </desc>
<link href="https://chemins.be/sugny/chemin/56"/><trkseg>
<trkpt lat="49.816047" lon="4.897478"><time>2026-05-02T21:39:54Z</time></trkpt>
<trkpt lat="49.815988" lon="4.896560"><time>2026-05-02T21:49:54Z</time></trkpt>
<trkpt lat="49.816010" lon="4.895713"><time>2026-05-02T21:59:54Z</time></trkpt>
<trkpt lat="49.816164" lon="4.895534"><time>2026-05-02T22:09:54Z</time></trkpt>
</trkseg>
</trk>
<trk>
<name>nvssg57</name>
<cmt>d</cmt>
<desc>Sugny Chemin n°57 </desc>
<link href="https://chemins.be/sugny/chemin/57"/><trkseg>
<trkpt lat="49.793930" lon="4.869374"><time>2026-05-02T21:39:54Z</time></trkpt>
<trkpt lat="49.795489" lon="4.866571"><time>2026-05-02T21:49:54Z</time></trkpt>
</trkseg></trk>
<trk>
<name>nvssg57</name>
<cmt>v</cmt>
<desc>Sugny Chemin n°57 </desc>
<link href="https://chemins.be/sugny/chemin/57"/><trkseg>
<trkpt lat="49.795489" lon="4.866571"><time>2026-05-02T21:49:54Z</time></trkpt>
<trkpt lat="49.796420" lon="4.865427"><time>2026-05-02T21:59:54Z</time></trkpt>
<trkpt lat="49.796955" lon="4.864211"><time>2026-05-02T22:09:54Z</time></trkpt>
<trkpt lat="49.798355" lon="4.860683"><time>2026-05-02T22:19:54Z</time></trkpt>
<trkpt lat="49.799098" lon="4.859371"><time>2026-05-02T22:29:54Z</time></trkpt>
</trkseg>
</trk>
<trk>
<name>nvssg58</name>
<cmt>v</cmt>
<desc>Sugny Chemin n°58 </desc>
<link href="https://chemins.be/sugny/chemin/58"/><trkseg>
<trkpt lat="49.798892" lon="4.871565"><time>2026-05-02T21:39:54Z</time></trkpt>
<trkpt lat="49.797415" lon="4.872160"><time>2026-05-02T21:49:54Z</time></trkpt>
<trkpt lat="49.796029" lon="4.872562"><time>2026-05-02T21:59:54Z</time></trkpt>
<trkpt lat="49.794783" lon="4.873647"><time>2026-05-02T22:09:54Z</time></trkpt>
</trkseg>
</trk>
<trk>
<name>nvssg59</name>
<cmt>v</cmt>
<desc>Sugny Chemin n°59 </desc>
<link href="https://chemins.be/sugny/chemin/59"/><trkseg>
<trkpt lat="49.796913" lon="4.867877"><time>2026-05-02T21:39:54Z</time></trkpt>
<trkpt lat="49.794345" lon="4.868961"><time>2026-05-02T21:49:54Z</time></trkpt>
<trkpt lat="49.793966" lon="4.869444"><time>2026-05-02T21:59:54Z</time></trkpt>
<trkpt lat="49.793613" lon="4.869801"><time>2026-05-02T22:09:54Z</time></trkpt>
<trkpt lat="49.789400" lon="4.871062"><time>2026-05-02T22:19:54Z</time></trkpt>
</trkseg>
</trk>
<trk>
<name>nvssg5bis</name>
<cmt>v</cmt>
<desc>Sugny Chemin n°5bis </desc>
<link href="https://chemins.be/sugny/chemin/5bis"/><trkseg>
<trkpt lat="49.802284" lon="4.926465"><time>2026-05-02T21:39:54Z</time></trkpt>
<trkpt lat="49.801795" lon="4.928518"><time>2026-05-02T21:49:54Z</time></trkpt>
</trkseg>
</trk>
<trk>
<name>nvssg6</name>
<cmt>v</cmt>
<desc>Sugny Chemin n°6 </desc>
<link href="https://chemins.be/sugny/chemin/6"/><trkseg>
<trkpt lat="49.801771" lon="4.928522"><time>2026-05-02T21:39:54Z</time></trkpt>
<trkpt lat="49.798850" lon="4.931014"><time>2026-05-02T21:49:54Z</time></trkpt>
<trkpt lat="49.797396" lon="4.934164"><time>2026-05-02T21:59:54Z</time></trkpt>
<trkpt lat="49.796950" lon="4.935311"><time>2026-05-02T22:09:54Z</time></trkpt>
<trkpt lat="49.795319" lon="4.936056"><time>2026-05-02T22:19:54Z</time></trkpt>
<trkpt lat="49.794086" lon="4.936236"><time>2026-05-02T22:29:54Z</time></trkpt>
<trkpt lat="49.792347" lon="4.936937"><time>2026-05-02T22:39:54Z</time></trkpt>
</trkseg>
</trk>
<trk>
<name>nvssg60</name>
<cmt>v</cmt>
<desc>Sugny Chemin n°60 </desc>
<link href="https://chemins.be/sugny/chemin/60"/><trkseg>
<trkpt lat="49.794924" lon="4.866217"><time>2026-05-02T21:39:54Z</time></trkpt>
<trkpt lat="49.794332" lon="4.865767"><time>2026-05-02T21:49:54Z</time></trkpt>
<trkpt lat="49.793595" lon="4.865690"><time>2026-05-02T21:59:54Z</time></trkpt>
<trkpt lat="49.791774" lon="4.864824"><time>2026-05-02T22:09:54Z</time></trkpt>
<trkpt lat="49.789734" lon="4.865211"><time>2026-05-02T22:19:54Z</time></trkpt>
<trkpt lat="49.789229" lon="4.865047"><time>2026-05-02T22:29:54Z</time></trkpt>
</trkseg>
</trk>
<trk>
<name>nvssg61</name>
<cmt>v</cmt>
<desc>Sugny Chemin n°61 </desc>
<link href="https://chemins.be/sugny/chemin/61"/><trkseg>
<trkpt lat="49.804560" lon="4.876861"><time>2026-05-02T21:39:54Z</time></trkpt>
<trkpt lat="49.804309" lon="4.876831"><time>2026-05-02T21:49:54Z</time></trkpt>
<trkpt lat="49.802865" lon="4.877913"><time>2026-05-02T21:59:54Z</time></trkpt>
<trkpt lat="49.802124" lon="4.878905"><time>2026-05-02T22:09:54Z</time></trkpt>
<trkpt lat="49.801722" lon="4.880332"><time>2026-05-02T22:19:54Z</time></trkpt>
<trkpt lat="49.801615" lon="4.882095"><time>2026-05-02T22:29:54Z</time></trkpt>
<trkpt lat="49.801279" lon="4.882841"><time>2026-05-02T22:39:54Z</time></trkpt>
<trkpt lat="49.799837" lon="4.883645"><time>2026-05-02T22:49:54Z</time></trkpt>
</trkseg>
</trk>
<trk>
<name>nvssg62</name>
<cmt>v</cmt>
<desc>Sugny Chemin n°62 </desc>
<link href="https://chemins.be/sugny/chemin/62"/><trkseg>
<trkpt lat="49.806567" lon="4.882481"><time>2026-05-02T21:39:54Z</time></trkpt>
<trkpt lat="49.805796" lon="4.882028"><time>2026-05-02T21:49:54Z</time></trkpt>
<trkpt lat="49.804836" lon="4.881518"><time>2026-05-02T21:59:54Z</time></trkpt>
<trkpt lat="49.803942" lon="4.880341"><time>2026-05-02T22:09:54Z</time></trkpt>
<trkpt lat="49.803559" lon="4.879684"><time>2026-05-02T22:19:54Z</time></trkpt>
<trkpt lat="49.802768" lon="4.879662"><time>2026-05-02T22:29:54Z</time></trkpt>
<trkpt lat="49.802011" lon="4.880001"><time>2026-05-02T22:39:54Z</time></trkpt>
<trkpt lat="49.801776" lon="4.880290"><time>2026-05-02T22:49:54Z</time></trkpt>
</trkseg>
</trk>
<trk>
<name>nvssg63</name>
<cmt>v</cmt>
<desc>Sugny Chemin n°63 </desc>
<link href="https://chemins.be/sugny/chemin/63"/><trkseg>
<trkpt lat="49.804692" lon="4.881572"><time>2026-05-02T21:39:54Z</time></trkpt>
<trkpt lat="49.803534" lon="4.881268"><time>2026-05-02T21:49:54Z</time></trkpt>
</trkseg>
</trk>
<trk>
<name>nvssg64</name>
<cmt>v</cmt>
<desc>Sugny Chemin n°64 </desc>
<link href="https://chemins.be/sugny/chemin/64"/><trkseg>
<trkpt lat="49.812087" lon="4.896560"><time>2026-05-02T21:39:54Z</time></trkpt>
<trkpt lat="49.809718" lon="4.895519"><time>2026-05-02T21:49:54Z</time></trkpt>
<trkpt lat="49.808381" lon="4.894913"><time>2026-05-02T21:59:54Z</time></trkpt>
<trkpt lat="49.807227" lon="4.893644"><time>2026-05-02T22:09:54Z</time></trkpt>
<trkpt lat="49.806964" lon="4.892099"><time>2026-05-02T22:19:54Z</time></trkpt>
<trkpt lat="49.806692" lon="4.890568"><time>2026-05-02T22:29:54Z</time></trkpt>
<trkpt lat="49.806104" lon="4.889533"><time>2026-05-02T22:39:54Z</time></trkpt>
<trkpt lat="49.805484" lon="4.889276"><time>2026-05-02T22:49:54Z</time></trkpt>
<trkpt lat="49.804782" lon="4.889477"><time>2026-05-02T22:59:54Z</time></trkpt>
</trkseg></trk>
<trk>
<name>nvssg64</name>
<cmt>d</cmt>
<desc>Sugny Chemin n°64 </desc>
<link href="https://chemins.be/sugny/chemin/64"/><trkseg>
<trkpt lat="49.804782" lon="4.889477"><time>2026-05-02T22:59:54Z</time></trkpt>
<trkpt lat="49.804027" lon="4.889400"><time>2026-05-02T23:09:54Z</time></trkpt>
<trkpt lat="49.802677" lon="4.887774"><time>2026-05-02T23:19:54Z</time></trkpt>
<trkpt lat="49.800796" lon="4.886281"><time>2026-05-02T23:29:54Z</time></trkpt>
<trkpt lat="49.799561" lon="4.884878"><time>2026-05-02T23:39:54Z</time></trkpt>
<trkpt lat="49.798997" lon="4.884414"><time>2026-05-02T23:49:54Z</time></trkpt>
<trkpt lat="49.798031" lon="4.883251"><time>2026-05-02T23:59:54Z</time></trkpt>
<trkpt lat="49.796868" lon="4.882030"><time>2026-05-03T00:09:54Z</time></trkpt>
<trkpt lat="49.795928" lon="4.881089"><time>2026-05-03T00:19:54Z</time></trkpt>
<trkpt lat="49.795137" lon="4.881123"><time>2026-05-03T00:29:54Z</time></trkpt>
<trkpt lat="49.793788" lon="4.881066"><time>2026-05-03T00:39:54Z</time></trkpt>
<trkpt lat="49.792717" lon="4.881305"><time>2026-05-03T00:49:54Z</time></trkpt>
<trkpt lat="49.792196" lon="4.881341"><time>2026-05-03T00:59:54Z</time></trkpt>
<trkpt lat="49.791554" lon="4.882195"><time>2026-05-03T01:09:54Z</time></trkpt>
<trkpt lat="49.791416" lon="4.882847"><time>2026-05-03T01:19:54Z</time></trkpt>
<trkpt lat="49.791365" lon="4.884138"><time>2026-05-03T01:29:54Z</time></trkpt>
<trkpt lat="49.791364" lon="4.884318"><time>2026-05-03T01:39:54Z</time></trkpt>
<trkpt lat="49.791571" lon="4.884362"><time>2026-05-03T01:49:54Z</time></trkpt>
</trkseg>
</trk>
<trk>
<name>nvssg66</name>
<cmt>r</cmt>
<desc>Sugny Chemin n°66 Rue des Crutins</desc>
<link href="https://chemins.be/sugny/chemin/66"/><trkseg>
<trkpt lat="49.807826" lon="4.902153"><time>2026-05-02T21:39:54Z</time></trkpt>
<trkpt lat="49.807113" lon="4.900839"><time>2026-05-02T21:49:54Z</time></trkpt>
<trkpt lat="49.806576" lon="4.900319"><time>2026-05-02T21:59:54Z</time></trkpt>
<trkpt lat="49.803589" lon="4.898674"><time>2026-05-02T22:09:54Z</time></trkpt>
<trkpt lat="49.801262" lon="4.892592"><time>2026-05-02T22:19:54Z</time></trkpt>
<trkpt lat="49.799962" lon="4.891661"><time>2026-05-02T22:29:54Z</time></trkpt>
<trkpt lat="49.797724" lon="4.887609"><time>2026-05-02T22:39:54Z</time></trkpt>
</trkseg></trk>
<trk>
<name>nvssg66</name>
<cmt>v</cmt>
<desc>Sugny Chemin n°66 Rue des Crutins</desc>
<link href="https://chemins.be/sugny/chemin/66"/><trkseg>
<trkpt lat="49.797724" lon="4.887609"><time>2026-05-02T22:39:54Z</time></trkpt>
<trkpt lat="49.797151" lon="4.886978"><time>2026-05-02T22:49:54Z</time></trkpt>
<trkpt lat="49.795484" lon="4.885821"><time>2026-05-02T22:59:54Z</time></trkpt>
<trkpt lat="49.793992" lon="4.885520"><time>2026-05-02T23:09:54Z</time></trkpt>
<trkpt lat="49.792808" lon="4.885853"><time>2026-05-02T23:19:54Z</time></trkpt>
<trkpt lat="49.792267" lon="4.886572"><time>2026-05-02T23:29:54Z</time></trkpt>
<trkpt lat="49.791902" lon="4.886740"><time>2026-05-02T23:39:54Z</time></trkpt>
<trkpt lat="49.790174" lon="4.887041"><time>2026-05-02T23:49:54Z</time></trkpt>
<trkpt lat="49.789506" lon="4.887673"><time>2026-05-02T23:59:54Z</time></trkpt>
<trkpt lat="49.789333" lon="4.888129"><time>2026-05-03T00:09:54Z</time></trkpt>
<trkpt lat="49.789135" lon="4.888210"><time>2026-05-03T00:19:54Z</time></trkpt>
<trkpt lat="49.789001" lon="4.888056"><time>2026-05-03T00:29:54Z</time></trkpt>
<trkpt lat="49.788650" lon="4.888136"><time>2026-05-03T00:39:54Z</time></trkpt>
<trkpt lat="49.788354" lon="4.887855"><time>2026-05-03T00:49:54Z</time></trkpt>
</trkseg>
</trk>
<trk>
<name>nvssg67</name>
<cmt>d</cmt>
<desc>Sugny Sentier n°67 </desc>
<link href="https://chemins.be/sugny/sentier/67"/><trkseg>
<trkpt lat="49.803643" lon="4.906454"><time>2026-05-02T21:39:54Z</time></trkpt>
<trkpt lat="49.800578" lon="4.908184"><time>2026-05-02T21:49:54Z</time></trkpt>
</trkseg></trk>
<trk>
<name>nvssg67</name>
<cmt>v</cmt>
<desc>Sugny Sentier n°67 </desc>
<link href="https://chemins.be/sugny/sentier/67"/><trkseg>
<trkpt lat="49.800578" lon="4.908184"><time>2026-05-02T21:49:54Z</time></trkpt>
<trkpt lat="49.799976" lon="4.908080"><time>2026-05-02T21:59:54Z</time></trkpt>
<trkpt lat="49.797336" lon="4.905383"><time>2026-05-02T22:09:54Z</time></trkpt>
<trkpt lat="49.796851" lon="4.903517"><time>2026-05-02T22:19:54Z</time></trkpt>
<trkpt lat="49.795099" lon="4.901317"><time>2026-05-02T22:29:54Z</time></trkpt>
<trkpt lat="49.793363" lon="4.901409"><time>2026-05-02T22:39:54Z</time></trkpt>
<trkpt lat="49.792522" lon="4.900524"><time>2026-05-02T22:49:54Z</time></trkpt>
<trkpt lat="49.791209" lon="4.900510"><time>2026-05-02T22:59:54Z</time></trkpt>
</trkseg>
</trk>
<trk>
<name>nvssg68</name>
<cmt>v</cmt>
<desc>Sugny Sentier n°68 </desc>
<link href="https://chemins.be/sugny/sentier/68"/><trkseg>
<trkpt lat="49.800532" lon="4.908336"><time>2026-05-02T21:39:54Z</time></trkpt>
<trkpt lat="49.799342" lon="4.909073"><time>2026-05-02T21:49:54Z</time></trkpt>
<trkpt lat="49.795716" lon="4.908004"><time>2026-05-02T21:59:54Z</time></trkpt>
<trkpt lat="49.790791" lon="4.907324"><time>2026-05-02T22:09:54Z</time></trkpt>
<trkpt lat="49.789393" lon="4.905394"><time>2026-05-02T22:19:54Z</time></trkpt>
<trkpt lat="49.789056" lon="4.904028"><time>2026-05-02T22:29:54Z</time></trkpt>
<trkpt lat="49.789522" lon="4.901875"><time>2026-05-02T22:39:54Z</time></trkpt>
<trkpt lat="49.789179" lon="4.898307"><time>2026-05-02T22:49:54Z</time></trkpt>
</trkseg>
</trk>
<trk>
<name>nvssg69</name>
<cmt>v</cmt>
<desc>Sugny Sentier n°69 </desc>
<link href="https://chemins.be/sugny/sentier/69"/><trkseg>
<trkpt lat="49.794608" lon="4.917686"><time>2026-05-02T21:39:54Z</time></trkpt>
<trkpt lat="49.793041" lon="4.916405"><time>2026-05-02T21:49:54Z</time></trkpt>
<trkpt lat="49.792309" lon="4.915202"><time>2026-05-02T21:59:54Z</time></trkpt>
<trkpt lat="49.791191" lon="4.913967"><time>2026-05-02T22:09:54Z</time></trkpt>
<trkpt lat="49.790634" lon="4.910086"><time>2026-05-02T22:19:54Z</time></trkpt>
<trkpt lat="49.791013" lon="4.907979"><time>2026-05-02T22:29:54Z</time></trkpt>
<trkpt lat="49.791464" lon="4.907568"><time>2026-05-02T22:39:54Z</time></trkpt>
</trkseg>
</trk>
<trk>
<name>nvssg7</name>
<cmt>v</cmt>
<desc>Sugny Chemin n°7 </desc>
<link href="https://chemins.be/sugny/chemin/7"/><trkseg>
<trkpt lat="49.808738" lon="4.935075"><time>2026-05-02T21:39:54Z</time></trkpt>
<trkpt lat="49.807762" lon="4.933398"><time>2026-05-02T21:49:54Z</time></trkpt>
<trkpt lat="49.806745" lon="4.931939"><time>2026-05-02T21:59:54Z</time></trkpt>
<trkpt lat="49.805692" lon="4.930673"><time>2026-05-02T22:09:54Z</time></trkpt>
<trkpt lat="49.803276" lon="4.927819"><time>2026-05-02T22:19:54Z</time></trkpt>
<trkpt lat="49.802943" lon="4.928066"><time>2026-05-02T22:29:54Z</time></trkpt>
<trkpt lat="49.802406" lon="4.928291"><time>2026-05-02T22:39:54Z</time></trkpt>
</trkseg>
</trk>
<trk>
<name>nvssg70</name>
<cmt>v</cmt>
<desc>Sugny Sentier n°70 </desc>
<link href="https://chemins.be/sugny/sentier/70"/><trkseg>
<trkpt lat="49.790544" lon="4.910057"><time>2026-05-02T21:39:54Z</time></trkpt>
<trkpt lat="49.789833" lon="4.908452"><time>2026-05-02T21:49:54Z</time></trkpt>
<trkpt lat="49.789019" lon="4.907415"><time>2026-05-02T21:59:54Z</time></trkpt>
<trkpt lat="49.787361" lon="4.904522"><time>2026-05-02T22:09:54Z</time></trkpt>
<trkpt lat="49.786789" lon="4.901738"><time>2026-05-02T22:19:54Z</time></trkpt>
<trkpt lat="49.786234" lon="4.901330"><time>2026-05-02T22:29:54Z</time></trkpt>
</trkseg>
</trk>
<trk>
<name>nvssg72</name>
<cmt>v</cmt>
<desc>Sugny Sentier n°72 </desc>
<link href="https://chemins.be/sugny/sentier/72"/><trkseg>
<trkpt lat="49.816198" lon="4.899911"><time>2026-05-02T21:39:54Z</time></trkpt>
<trkpt lat="49.816270" lon="4.899745"><time>2026-05-02T21:49:54Z</time></trkpt>
<trkpt lat="49.816253" lon="4.899731"><time>2026-05-02T21:59:54Z</time></trkpt>
<trkpt lat="49.816535" lon="4.898873"><time>2026-05-02T22:09:54Z</time></trkpt>
<trkpt lat="49.816717" lon="4.898402"><time>2026-05-02T22:19:54Z</time></trkpt>
<trkpt lat="49.816844" lon="4.898112"><time>2026-05-02T22:29:54Z</time></trkpt>
<trkpt lat="49.816684" lon="4.897763"><time>2026-05-02T22:39:54Z</time></trkpt>
<trkpt lat="49.816550" lon="4.897511"><time>2026-05-02T22:49:54Z</time></trkpt>
</trkseg>
</trk>
<trk>
<name>nvssg73</name>
<cmt>d</cmt>
<desc>Sugny Sentier n°73 </desc>
<link href="https://chemins.be/sugny/sentier/73"/><trkseg>
<trkpt lat="49.820176" lon="4.900970"><time>2026-05-02T21:39:54Z</time></trkpt>
<trkpt lat="49.821952" lon="4.899975"><time>2026-05-02T21:49:54Z</time></trkpt>
<trkpt lat="49.823519" lon="4.899409"><time>2026-05-02T21:59:54Z</time></trkpt>
<trkpt lat="49.824078" lon="4.898887"><time>2026-05-02T22:09:54Z</time></trkpt>
<trkpt lat="49.824414" lon="4.898307"><time>2026-05-02T22:19:54Z</time></trkpt>
<trkpt lat="49.825287" lon="4.897997"><time>2026-05-02T22:29:54Z</time></trkpt>
</trkseg>
</trk>
<trk>
<name>nvssg74</name>
<cmt>q</cmt>
<desc>Sugny Sentier n°74 </desc>
<link href="https://chemins.be/sugny/sentier/74"/><trkseg>
<trkpt lat="49.816364" lon="4.904832"><time>2026-05-02T21:39:54Z</time></trkpt>
<trkpt lat="49.815327" lon="4.905473"><time>2026-05-02T21:49:54Z</time></trkpt>
<trkpt lat="49.815281" lon="4.905570"><time>2026-05-02T21:59:54Z</time></trkpt>
<trkpt lat="49.814354" lon="4.905907"><time>2026-05-02T22:09:54Z</time></trkpt>
<trkpt lat="49.814127" lon="4.906238"><time>2026-05-02T22:19:54Z</time></trkpt>
<trkpt lat="49.813284" lon="4.907868"><time>2026-05-02T22:29:54Z</time></trkpt>
<trkpt lat="49.813155" lon="4.908409"><time>2026-05-02T22:39:54Z</time></trkpt>
<trkpt lat="49.812946" lon="4.910782"><time>2026-05-02T22:49:54Z</time></trkpt>
<trkpt lat="49.812126" lon="4.913010"><time>2026-05-02T22:59:54Z</time></trkpt>
<trkpt lat="49.811943" lon="4.913703"><time>2026-05-02T23:09:54Z</time></trkpt>
</trkseg></trk>
<trk>
<name>nvssg74</name>
<cmt>v</cmt>
<desc>Sugny Sentier n°74 </desc>
<link href="https://chemins.be/sugny/sentier/74"/><trkseg>
<trkpt lat="49.811943" lon="4.913703"><time>2026-05-02T23:09:54Z</time></trkpt>
<trkpt lat="49.812145" lon="4.914733"><time>2026-05-02T23:19:54Z</time></trkpt>
<trkpt lat="49.811998" lon="4.917399"><time>2026-05-02T23:29:54Z</time></trkpt>
</trkseg>
</trk>
<trk>
<name>nvssg75</name>
<cmt>d</cmt>
<desc>Sugny Sentier n°75 </desc>
<link href="https://chemins.be/sugny/sentier/75"/><trkseg>
<trkpt lat="49.813379" lon="4.900880"><time>2026-05-02T21:39:54Z</time></trkpt>
<trkpt lat="49.811759" lon="4.899293"><time>2026-05-02T21:49:54Z</time></trkpt>
<trkpt lat="49.810707" lon="4.899392"><time>2026-05-02T21:59:54Z</time></trkpt>
<trkpt lat="49.809489" lon="4.900226"><time>2026-05-02T22:09:54Z</time></trkpt>
</trkseg>
</trk>
<trk>
<name>nvssg76</name>
<cmt>d</cmt>
<desc>Sugny Sentier n°76 </desc>
<link href="https://chemins.be/sugny/sentier/76"/><trkseg>
<trkpt lat="49.824575" lon="4.874544"><time>2026-05-02T21:39:54Z</time></trkpt>
<trkpt lat="49.824536" lon="4.873237"><time>2026-05-02T21:49:54Z</time></trkpt>
<trkpt lat="49.825291" lon="4.871174"><time>2026-05-02T21:59:54Z</time></trkpt>
<trkpt lat="49.825356" lon="4.870758"><time>2026-05-02T22:09:54Z</time></trkpt>
<trkpt lat="49.825962" lon="4.869861"><time>2026-05-02T22:19:54Z</time></trkpt>
<trkpt lat="49.825965" lon="4.869152"><time>2026-05-02T22:29:54Z</time></trkpt>
</trkseg>
</trk>
<trk>
<name>nvssg77</name>
<cmt>r</cmt>
<desc>Sugny Chemin n°77 </desc>
<link href="https://chemins.be/sugny/chemin/77"/><trkseg>
<trkpt lat="49.811982" lon="4.899049"><time>2026-05-02T21:39:54Z</time></trkpt>
<trkpt lat="49.811532" lon="4.898760"><time>2026-05-02T21:49:54Z</time></trkpt>
<trkpt lat="49.810002" lon="4.898213"><time>2026-05-02T21:59:54Z</time></trkpt>
</trkseg>
</trk>
<trk>
<name>nvssg79</name>
<cmt>v</cmt>
<desc>Sugny Sentier n°79 </desc>
<link href="https://chemins.be/sugny/sentier/79"/><trkseg>
<trkpt lat="49.788124" lon="4.927250"><time>2026-05-02T21:39:54Z</time></trkpt>
<trkpt lat="49.787514" lon="4.927062"><time>2026-05-02T21:49:54Z</time></trkpt>
</trkseg>
</trk>
<trk>
<name>nvssg8</name>
<cmt>v</cmt>
<desc>Sugny Chemin n°8 </desc>
<link href="https://chemins.be/sugny/chemin/8"/><trkseg>
<trkpt lat="49.812341" lon="4.905579"><time>2026-05-02T21:39:54Z</time></trkpt>
<trkpt lat="49.812223" lon="4.907842"><time>2026-05-02T21:49:54Z</time></trkpt>
<trkpt lat="49.811157" lon="4.908803"><time>2026-05-02T21:59:54Z</time></trkpt>
<trkpt lat="49.810332" lon="4.910253"><time>2026-05-02T22:09:54Z</time></trkpt>
<trkpt lat="49.810335" lon="4.911503"><time>2026-05-02T22:19:54Z</time></trkpt>
<trkpt lat="49.810568" lon="4.913604"><time>2026-05-02T22:29:54Z</time></trkpt>
<trkpt lat="49.811420" lon="4.915878"><time>2026-05-02T22:39:54Z</time></trkpt>
<trkpt lat="49.811978" lon="4.917635"><time>2026-05-02T22:49:54Z</time></trkpt>
<trkpt lat="49.812339" lon="4.919223"><time>2026-05-02T22:59:54Z</time></trkpt>
<trkpt lat="49.813026" lon="4.920426"><time>2026-05-02T23:09:54Z</time></trkpt>
<trkpt lat="49.813011" lon="4.921732"><time>2026-05-02T23:19:54Z</time></trkpt>
<trkpt lat="49.812609" lon="4.923033"><time>2026-05-02T23:29:54Z</time></trkpt>
<trkpt lat="49.812390" lon="4.923586"><time>2026-05-02T23:39:54Z</time></trkpt>
<trkpt lat="49.812412" lon="4.924656"><time>2026-05-02T23:49:54Z</time></trkpt>
<trkpt lat="49.812110" lon="4.925737"><time>2026-05-02T23:59:54Z</time></trkpt>
<trkpt lat="49.811504" lon="4.926563"><time>2026-05-03T00:09:54Z</time></trkpt>
<trkpt lat="49.810999" lon="4.928753"><time>2026-05-03T00:19:54Z</time></trkpt>
<trkpt lat="49.810002" lon="4.930297"><time>2026-05-03T00:29:54Z</time></trkpt>
<trkpt lat="49.808764" lon="4.935270"><time>2026-05-03T00:39:54Z</time></trkpt>
<trkpt lat="49.808016" lon="4.937303"><time>2026-05-03T00:49:54Z</time></trkpt>
<trkpt lat="49.807192" lon="4.938641"><time>2026-05-03T00:59:54Z</time></trkpt>
<trkpt lat="49.806313" lon="4.941784"><time>2026-05-03T01:09:54Z</time></trkpt>
<trkpt lat="49.806396" lon="4.943063"><time>2026-05-03T01:19:54Z</time></trkpt>
<trkpt lat="49.805868" lon="4.946728"><time>2026-05-03T01:29:54Z</time></trkpt>
<trkpt lat="49.805951" lon="4.948702"><time>2026-05-03T01:39:54Z</time></trkpt>
<trkpt lat="49.806573" lon="4.950762"><time>2026-05-03T01:49:54Z</time></trkpt>
<trkpt lat="49.806558" lon="4.953493"><time>2026-05-03T01:59:54Z</time></trkpt>
<trkpt lat="49.806953" lon="4.957352"><time>2026-05-03T02:09:54Z</time></trkpt>
<trkpt lat="49.806621" lon="4.960807"><time>2026-05-03T02:19:54Z</time></trkpt>
</trkseg>
</trk>
<trk>
<name>nvssg80</name>
<cmt>d</cmt>
<desc>Sugny Sentier n°80 </desc>
<link href="https://chemins.be/sugny/sentier/80"/><trkseg>
<trkpt lat="49.799971" lon="4.867589"><time>2026-05-02T21:39:54Z</time></trkpt>
<trkpt lat="49.799138" lon="4.866831"><time>2026-05-02T21:49:54Z</time></trkpt>
<trkpt lat="49.797973" lon="4.865818"><time>2026-05-02T21:59:54Z</time></trkpt>
<trkpt lat="49.796439" lon="4.865150"><time>2026-05-02T22:09:54Z</time></trkpt>
<trkpt lat="49.794033" lon="4.864347"><time>2026-05-02T22:19:54Z</time></trkpt>
</trkseg>
</trk>
<trk>
<name>nvssg81</name>
<cmt>d</cmt>
<desc>Sugny Sentier n°81 </desc>
<link href="https://chemins.be/sugny/sentier/81"/><trkseg>
<trkpt lat="49.808761" lon="4.872377"><time>2026-05-02T21:39:54Z</time></trkpt>
<trkpt lat="49.808103" lon="4.872592"><time>2026-05-02T21:49:54Z</time></trkpt>
</trkseg></trk>
<trk>
<name>nvssg81</name>
<cmt>v</cmt>
<desc>Sugny Sentier n°81 </desc>
<link href="https://chemins.be/sugny/sentier/81"/><trkseg>
<trkpt lat="49.808103" lon="4.872592"><time>2026-05-02T21:49:54Z</time></trkpt>
<trkpt lat="49.807671" lon="4.872851"><time>2026-05-02T21:59:54Z</time></trkpt>
<trkpt lat="49.807668" lon="4.873421"><time>2026-05-02T22:09:54Z</time></trkpt>
<trkpt lat="49.807675" lon="4.873949"><time>2026-05-02T22:19:54Z</time></trkpt>
<trkpt lat="49.807601" lon="4.874337"><time>2026-05-02T22:29:54Z</time></trkpt>
<trkpt lat="49.807358" lon="4.874446"><time>2026-05-02T22:39:54Z</time></trkpt>
<trkpt lat="49.806801" lon="4.874273"><time>2026-05-02T22:49:54Z</time></trkpt>
</trkseg></trk>
<trk>
<name>nvssg81</name>
<cmt>d</cmt>
<desc>Sugny Sentier n°81 </desc>
<link href="https://chemins.be/sugny/sentier/81"/><trkseg>
<trkpt lat="49.806801" lon="4.874273"><time>2026-05-02T22:49:54Z</time></trkpt>
<trkpt lat="49.806369" lon="4.874560"><time>2026-05-02T22:59:54Z</time></trkpt>
<trkpt lat="49.805385" lon="4.875397"><time>2026-05-02T23:09:54Z</time></trkpt>
<trkpt lat="49.805070" lon="4.875366"><time>2026-05-02T23:19:54Z</time></trkpt>
<trkpt lat="49.804766" lon="4.875155"><time>2026-05-02T23:29:54Z</time></trkpt>
<trkpt lat="49.804383" lon="4.874317"><time>2026-05-02T23:39:54Z</time></trkpt>
<trkpt lat="49.803908" lon="4.873909"><time>2026-05-02T23:49:54Z</time></trkpt>
</trkseg>
</trk>
<trk>
<name>nvssg82</name>
<cmt>r</cmt>
<desc>Sugny Chemin n°82 Place de la Goutelle</desc>
<link href="https://chemins.be/sugny/chemin/82"/><trkseg>
<trkpt lat="49.815098" lon="4.898496"><time>2026-05-02T21:39:54Z</time></trkpt>
<trkpt lat="49.815929" lon="4.897852"><time>2026-05-02T21:49:54Z</time></trkpt>
<trkpt lat="49.816658" lon="4.897499"><time>2026-05-02T21:59:54Z</time></trkpt>
</trkseg>
</trk>
<trk>
<name>nvssg9</name>
<cmt>v</cmt>
<desc>Sugny Chemin n°9 </desc>
<link href="https://chemins.be/sugny/chemin/9"/><trkseg>
<trkpt lat="49.810981" lon="4.928738"><time>2026-05-02T21:39:54Z</time></trkpt>
<trkpt lat="49.810739" lon="4.932140"><time>2026-05-02T21:49:54Z</time></trkpt>
<trkpt lat="49.810640" lon="4.934234"><time>2026-05-02T21:59:54Z</time></trkpt>
<trkpt lat="49.810638" lon="4.934842"><time>2026-05-02T22:09:54Z</time></trkpt>
<trkpt lat="49.810599" lon="4.936173"><time>2026-05-02T22:19:54Z</time></trkpt>
<trkpt lat="49.811378" lon="4.939275"><time>2026-05-02T22:29:54Z</time></trkpt>
<trkpt lat="49.811713" lon="4.942516"><time>2026-05-02T22:39:54Z</time></trkpt>
<trkpt lat="49.812351" lon="4.946108"><time>2026-05-02T22:49:54Z</time></trkpt>
<trkpt lat="49.812058" lon="4.948883"><time>2026-05-02T22:59:54Z</time></trkpt>
<trkpt lat="49.812999" lon="4.953146"><time>2026-05-02T23:09:54Z</time></trkpt>
<trkpt lat="49.812997" lon="4.953466"><time>2026-05-02T23:19:54Z</time></trkpt>
</trkseg>
</trk>
<trk>
<name>nvssgi1</name>
<cmt>v</cmt>
<desc>Sugny Chemin n°i1 </desc>
<link href="https://chemins.be/sugny/chemin/i1"/><trkseg>
<trkpt lat="49.824859" lon="4.878810"><time>2026-05-02T21:39:54Z</time></trkpt>
<trkpt lat="49.825047" lon="4.879151"><time>2026-05-02T21:49:54Z</time></trkpt>
<trkpt lat="49.825191" lon="4.880008"><time>2026-05-02T21:59:54Z</time></trkpt>
<trkpt lat="49.825791" lon="4.881977"><time>2026-05-02T22:09:54Z</time></trkpt>
<trkpt lat="49.826135" lon="4.882981"><time>2026-05-02T22:19:54Z</time></trkpt>
<trkpt lat="49.826444" lon="4.883710"><time>2026-05-02T22:29:54Z</time></trkpt>
<trkpt lat="49.826857" lon="4.884445"><time>2026-05-02T22:39:54Z</time></trkpt>
<trkpt lat="49.827348" lon="4.885746"><time>2026-05-02T22:49:54Z</time></trkpt>
</trkseg>
</trk>
<trk>
<name>nvssgi10</name>
<cmt>v</cmt>
<desc>Sugny Chemin n°i10 </desc>
<link href="https://chemins.be/sugny/chemin/i10"/><trkseg>
<trkpt lat="49.804458" lon="4.869511"><time>2026-05-02T21:39:54Z</time></trkpt>
<trkpt lat="49.804250" lon="4.871746"><time>2026-05-02T21:49:54Z</time></trkpt>
</trkseg>
</trk>
<trk>
<name>nvssgi11</name>
<cmt>v</cmt>
<desc>Sugny Sentier n°i11 </desc>
<link href="https://chemins.be/sugny/sentier/i11"/><trkseg>
<trkpt lat="49.824223" lon="4.876805"><time>2026-05-02T21:39:54Z</time></trkpt>
<trkpt lat="49.823917" lon="4.876872"><time>2026-05-02T21:49:54Z</time></trkpt>
<trkpt lat="49.823502" lon="4.877256"><time>2026-05-02T21:59:54Z</time></trkpt>
</trkseg>
</trk>
<trk>
<name>nvssgi12</name>
<cmt>v</cmt>
<desc>Sugny Chemin n°i12 </desc>
<link href="https://chemins.be/sugny/chemin/i12"/><trkseg>
<trkpt lat="49.806231" lon="4.941895"><time>2026-05-02T21:39:54Z</time></trkpt>
<trkpt lat="49.804570" lon="4.936026"><time>2026-05-02T21:49:54Z</time></trkpt>
<trkpt lat="49.803343" lon="4.933359"><time>2026-05-02T21:59:54Z</time></trkpt>
<trkpt lat="49.803031" lon="4.932841"><time>2026-05-02T22:09:54Z</time></trkpt>
<trkpt lat="49.802900" lon="4.932034"><time>2026-05-02T22:19:54Z</time></trkpt>
<trkpt lat="49.802710" lon="4.930420"><time>2026-05-02T22:29:54Z</time></trkpt>
</trkseg>
</trk>
<trk>
<name>nvssgi13</name>
<cmt>v</cmt>
<desc>Sugny Chemin n°i13 </desc>
<link href="https://chemins.be/sugny/chemin/i13"/><trkseg>
<trkpt lat="49.818670" lon="4.896076"><time>2026-05-02T21:39:54Z</time></trkpt>
<trkpt lat="49.817736" lon="4.893842"><time>2026-05-02T21:49:54Z</time></trkpt>
<trkpt lat="49.817136" lon="4.893280"><time>2026-05-02T21:59:54Z</time></trkpt>
</trkseg>
</trk>
<trk>
<name>nvssgi14</name>
<cmt>v</cmt>
<desc>Sugny Chemin n°i14 </desc>
<link href="https://chemins.be/sugny/chemin/i14"/><trkseg>
<trkpt lat="49.806865" lon="4.874093"><time>2026-05-02T21:39:54Z</time></trkpt>
<trkpt lat="49.806688" lon="4.873591"><time>2026-05-02T21:49:54Z</time></trkpt>
<trkpt lat="49.805819" lon="4.872804"><time>2026-05-02T21:59:54Z</time></trkpt>
</trkseg>
</trk>
<trk>
<name>nvssgi15</name>
<cmt>v</cmt>
<desc>Sugny Chemin n°i15 </desc>
<link href="https://chemins.be/sugny/chemin/i15"/><trkseg>
<trkpt lat="49.823824" lon="4.931584"><time>2026-05-02T21:39:54Z</time></trkpt>
<trkpt lat="49.822948" lon="4.932283"><time>2026-05-02T21:49:54Z</time></trkpt>
<trkpt lat="49.822003" lon="4.932578"><time>2026-05-02T21:59:54Z</time></trkpt>
<trkpt lat="49.821328" lon="4.932611"><time>2026-05-02T22:09:54Z</time></trkpt>
<trkpt lat="49.819816" lon="4.931093"><time>2026-05-02T22:19:54Z</time></trkpt>
<trkpt lat="49.819025" lon="4.929333"><time>2026-05-02T22:29:54Z</time></trkpt>
<trkpt lat="49.817923" lon="4.928528"><time>2026-05-02T22:39:54Z</time></trkpt>
</trkseg>
</trk>
<trk>
<name>nvssgi16</name>
<cmt>v</cmt>
<desc>Sugny Chemin n°i16 Chemin de la Couriette</desc>
<link href="https://chemins.be/sugny/chemin/i16"/><trkseg>
<trkpt lat="49.799298" lon="4.883501"><time>2026-05-02T21:39:54Z</time></trkpt>
<trkpt lat="49.798807" lon="4.882773"><time>2026-05-02T21:49:54Z</time></trkpt>
<trkpt lat="49.795841" lon="4.880408"><time>2026-05-02T21:59:54Z</time></trkpt>
<trkpt lat="49.795123" lon="4.880261"><time>2026-05-02T22:09:54Z</time></trkpt>
<trkpt lat="49.794899" lon="4.880092"><time>2026-05-02T22:19:54Z</time></trkpt>
<trkpt lat="49.794694" lon="4.879687"><time>2026-05-02T22:29:54Z</time></trkpt>
<trkpt lat="49.794553" lon="4.879005"><time>2026-05-02T22:39:54Z</time></trkpt>
<trkpt lat="49.794555" lon="4.878561"><time>2026-05-02T22:49:54Z</time></trkpt>
<trkpt lat="49.794674" lon="4.878131"><time>2026-05-02T22:59:54Z</time></trkpt>
<trkpt lat="49.794873" lon="4.877842"><time>2026-05-02T23:09:54Z</time></trkpt>
<trkpt lat="49.795116" lon="4.877636"><time>2026-05-02T23:19:54Z</time></trkpt>
<trkpt lat="49.795604" lon="4.877266"><time>2026-05-02T23:29:54Z</time></trkpt>
<trkpt lat="49.796127" lon="4.876758"><time>2026-05-02T23:39:54Z</time></trkpt>
</trkseg>
</trk>
<trk>
<name>nvssgi17</name>
<cmt>v</cmt>
<desc>Sugny Chemin n°i17 </desc>
<link href="https://chemins.be/sugny/chemin/i17"/><trkseg>
<trkpt lat="49.816780" lon="4.909250"><time>2026-05-02T21:39:54Z</time></trkpt>
<trkpt lat="49.816674" lon="4.909269"><time>2026-05-02T21:49:54Z</time></trkpt>
<trkpt lat="49.816555" lon="4.909380"><time>2026-05-02T21:59:54Z</time></trkpt>
<trkpt lat="49.816402" lon="4.909462"><time>2026-05-02T22:09:54Z</time></trkpt>
<trkpt lat="49.816298" lon="4.909509"><time>2026-05-02T22:19:54Z</time></trkpt>
<trkpt lat="49.816159" lon="4.909509"><time>2026-05-02T22:29:54Z</time></trkpt>
<trkpt lat="49.816124" lon="4.909467"><time>2026-05-02T22:39:54Z</time></trkpt>
<trkpt lat="49.816075" lon="4.909358"><time>2026-05-02T22:49:54Z</time></trkpt>
<trkpt lat="49.815978" lon="4.909314"><time>2026-05-02T22:59:54Z</time></trkpt>
<trkpt lat="49.815914" lon="4.909385"><time>2026-05-02T23:09:54Z</time></trkpt>
<trkpt lat="49.815800" lon="4.909482"><time>2026-05-02T23:19:54Z</time></trkpt>
<trkpt lat="49.815745" lon="4.909712"><time>2026-05-02T23:29:54Z</time></trkpt>
<trkpt lat="49.815616" lon="4.909921"><time>2026-05-02T23:39:54Z</time></trkpt>
<trkpt lat="49.815574" lon="4.909958"><time>2026-05-02T23:49:54Z</time></trkpt>
<trkpt lat="49.815497" lon="4.909980"><time>2026-05-02T23:59:54Z</time></trkpt>
<trkpt lat="49.815398" lon="4.909958"><time>2026-05-03T00:09:54Z</time></trkpt>
<trkpt lat="49.815319" lon="4.909856"><time>2026-05-03T00:19:54Z</time></trkpt>
<trkpt lat="49.815198" lon="4.909735"><time>2026-05-03T00:29:54Z</time></trkpt>
<trkpt lat="49.815113" lon="4.909688"><time>2026-05-03T00:39:54Z</time></trkpt>
<trkpt lat="49.815037" lon="4.909663"><time>2026-05-03T00:49:54Z</time></trkpt>
<trkpt lat="49.814962" lon="4.909767"><time>2026-05-03T00:59:54Z</time></trkpt>
<trkpt lat="49.814935" lon="4.909869"><time>2026-05-03T01:09:54Z</time></trkpt>
<trkpt lat="49.814928" lon="4.909960"><time>2026-05-03T01:19:54Z</time></trkpt>
<trkpt lat="49.815049" lon="4.910181"><time>2026-05-03T01:29:54Z</time></trkpt>
<trkpt lat="49.815094" lon="4.910580"><time>2026-05-03T01:39:54Z</time></trkpt>
<trkpt lat="49.815087" lon="4.910702"><time>2026-05-03T01:49:54Z</time></trkpt>
<trkpt lat="49.815392" lon="4.911926"><time>2026-05-03T01:59:54Z</time></trkpt>
</trkseg>
</trk>
<trk>
<name>nvssgi18</name>
<cmt>v</cmt>
<desc>Sugny Chemin n°i18 </desc>
<link href="https://chemins.be/sugny/chemin/i18"/><trkseg>
<trkpt lat="49.831087" lon="4.883976"><time>2026-05-02T21:39:54Z</time></trkpt>
<trkpt lat="49.829050" lon="4.885127"><time>2026-05-02T21:49:54Z</time></trkpt>
<trkpt lat="49.828607" lon="4.885058"><time>2026-05-02T21:59:54Z</time></trkpt>
<trkpt lat="49.827355" lon="4.885764"><time>2026-05-02T22:09:54Z</time></trkpt>
<trkpt lat="49.825108" lon="4.887032"><time>2026-05-02T22:19:54Z</time></trkpt>
</trkseg>
</trk>
<trk>
<name>nvssgi19</name>
<cmt>v</cmt>
<desc>Sugny Chemin n°i19 </desc>
<link href="https://chemins.be/sugny/chemin/i19"/><trkseg>
<trkpt lat="49.808185" lon="4.873583"><time>2026-05-02T21:39:54Z</time></trkpt>
<trkpt lat="49.808143" lon="4.872388"><time>2026-05-02T21:49:54Z</time></trkpt>
<trkpt lat="49.807764" lon="4.872624"><time>2026-05-02T21:59:54Z</time></trkpt>
<trkpt lat="49.807621" lon="4.872374"><time>2026-05-02T22:09:54Z</time></trkpt>
<trkpt lat="49.807649" lon="4.871709"><time>2026-05-02T22:19:54Z</time></trkpt>
<trkpt lat="49.807197" lon="4.870893"><time>2026-05-02T22:29:54Z</time></trkpt>
<trkpt lat="49.806523" lon="4.869148"><time>2026-05-02T22:39:54Z</time></trkpt>
<trkpt lat="49.805895" lon="4.868175"><time>2026-05-02T22:49:54Z</time></trkpt>
</trkseg>
</trk>
<trk>
<name>nvssgi2</name>
<cmt>v</cmt>
<desc>Sugny Chemin n°i2 </desc>
<link href="https://chemins.be/sugny/chemin/i2"/><trkseg>
<trkpt lat="49.816497" lon="4.906973"><time>2026-05-02T21:39:54Z</time></trkpt>
<trkpt lat="49.818165" lon="4.906089"><time>2026-05-02T21:49:54Z</time></trkpt>
<trkpt lat="49.818337" lon="4.903854"><time>2026-05-02T21:59:54Z</time></trkpt>
<trkpt lat="49.818693" lon="4.902704"><time>2026-05-02T22:09:54Z</time></trkpt>
</trkseg>
</trk>
<trk>
<name>nvssgi20</name>
<cmt>v</cmt>
<desc>Sugny Chemin n°i20 </desc>
<link href="https://chemins.be/sugny/chemin/i20"/><trkseg>
<trkpt lat="49.801795" lon="4.928532"><time>2026-05-02T21:39:54Z</time></trkpt>
<trkpt lat="49.800520" lon="4.932967"><time>2026-05-02T21:49:54Z</time></trkpt>
<trkpt lat="49.800230" lon="4.934619"><time>2026-05-02T21:59:54Z</time></trkpt>
<trkpt lat="49.799602" lon="4.941092"><time>2026-05-02T22:09:54Z</time></trkpt>
<trkpt lat="49.799278" lon="4.941865"><time>2026-05-02T22:19:54Z</time></trkpt>
<trkpt lat="49.799274" lon="4.942659"><time>2026-05-02T22:29:54Z</time></trkpt>
<trkpt lat="49.799463" lon="4.943538"><time>2026-05-02T22:39:54Z</time></trkpt>
<trkpt lat="49.799408" lon="4.948009"><time>2026-05-02T22:49:54Z</time></trkpt>
<trkpt lat="49.800013" lon="4.949153"><time>2026-05-02T22:59:54Z</time></trkpt>
<trkpt lat="49.801417" lon="4.954544"><time>2026-05-02T23:09:54Z</time></trkpt>
<trkpt lat="49.801781" lon="4.955891"><time>2026-05-02T23:19:54Z</time></trkpt>
<trkpt lat="49.802201" lon="4.956542"><time>2026-05-02T23:29:54Z</time></trkpt>
<trkpt lat="49.801970" lon="4.957743"><time>2026-05-02T23:39:54Z</time></trkpt>
</trkseg>
</trk>
<trk>
<name>nvssgi21</name>
<cmt>v</cmt>
<desc>Sugny Chemin n°i21 </desc>
<link href="https://chemins.be/sugny/chemin/i21"/><trkseg>
<trkpt lat="49.810567" lon="4.892391"><time>2026-05-02T21:39:54Z</time></trkpt>
<trkpt lat="49.809138" lon="4.891873"><time>2026-05-02T21:49:54Z</time></trkpt>
</trkseg>
</trk>
<trk>
<name>nvssgi22</name>
<cmt>v</cmt>
<desc>Sugny Chemin n°i22 </desc>
<link href="https://chemins.be/sugny/chemin/i22"/><trkseg>
<trkpt lat="49.812035" lon="4.917414"><time>2026-05-02T21:39:54Z</time></trkpt>
<trkpt lat="49.813501" lon="4.917775"><time>2026-05-02T21:49:54Z</time></trkpt>
<trkpt lat="49.814645" lon="4.918125"><time>2026-05-02T21:59:54Z</time></trkpt>
<trkpt lat="49.815397" lon="4.917660"><time>2026-05-02T22:09:54Z</time></trkpt>
</trkseg>
</trk>
<trk>
<name>nvssgi23</name>
<cmt>v</cmt>
<desc>Sugny Chemin n°i23 </desc>
<link href="https://chemins.be/sugny/chemin/i23"/><trkseg>
<trkpt lat="49.810039" lon="4.898282"><time>2026-05-02T21:39:54Z</time></trkpt>
<trkpt lat="49.809582" lon="4.898497"><time>2026-05-02T21:49:54Z</time></trkpt>
<trkpt lat="49.809423" lon="4.898383"><time>2026-05-02T21:59:54Z</time></trkpt>
<trkpt lat="49.807131" lon="4.899141"><time>2026-05-02T22:09:54Z</time></trkpt>
<trkpt lat="49.806639" lon="4.899967"><time>2026-05-02T22:19:54Z</time></trkpt>
<trkpt lat="49.806570" lon="4.900224"><time>2026-05-02T22:29:54Z</time></trkpt>
</trkseg>
</trk>
<trk>
<name>nvssgi3</name>
<cmt>v</cmt>
<desc>Sugny Chemin n°i3 </desc>
<link href="https://chemins.be/sugny/chemin/i3"/><trkseg>
<trkpt lat="49.805907" lon="4.871096"><time>2026-05-02T21:39:54Z</time></trkpt>
<trkpt lat="49.805749" lon="4.872428"><time>2026-05-02T21:49:54Z</time></trkpt>
<trkpt lat="49.805058" lon="4.872018"><time>2026-05-02T21:59:54Z</time></trkpt>
<trkpt lat="49.804277" lon="4.871760"><time>2026-05-02T22:09:54Z</time></trkpt>
<trkpt lat="49.804115" lon="4.871703"><time>2026-05-02T22:19:54Z</time></trkpt>
</trkseg>
</trk>
<trk>
<name>nvssgi4</name>
<cmt>v</cmt>
<desc>Sugny Chemin n°i4 Route de Corbion</desc>
<link href="https://chemins.be/sugny/chemin/i4"/><trkseg>
<trkpt lat="49.812222" lon="4.907981"><time>2026-05-02T21:39:54Z</time></trkpt>
<trkpt lat="49.811982" lon="4.909326"><time>2026-05-02T21:49:54Z</time></trkpt>
<trkpt lat="49.811896" lon="4.910437"><time>2026-05-02T21:59:54Z</time></trkpt>
<trkpt lat="49.811768" lon="4.912770"><time>2026-05-02T22:09:54Z</time></trkpt>
<trkpt lat="49.811917" lon="4.913577"><time>2026-05-02T22:19:54Z</time></trkpt>
</trkseg>
</trk>
<trk>
<name>nvssgi5</name>
<cmt>v</cmt>
<desc>Sugny Chemin n°i5 </desc>
<link href="https://chemins.be/sugny/chemin/i5"/><trkseg>
<trkpt lat="49.811968" lon="4.910424"><time>2026-05-02T21:39:54Z</time></trkpt>
<trkpt lat="49.812129" lon="4.910620"><time>2026-05-02T21:49:54Z</time></trkpt>
<trkpt lat="49.813719" lon="4.910916"><time>2026-05-02T21:59:54Z</time></trkpt>
<trkpt lat="49.813877" lon="4.911585"><time>2026-05-02T22:09:54Z</time></trkpt>
<trkpt lat="49.815403" lon="4.911913"><time>2026-05-02T22:19:54Z</time></trkpt>
<trkpt lat="49.815629" lon="4.911882"><time>2026-05-02T22:29:54Z</time></trkpt>
</trkseg>
</trk>
<trk>
<name>nvssgi6</name>
<cmt>v</cmt>
<desc>Sugny Chemin n°i6 </desc>
<link href="https://chemins.be/sugny/chemin/i6"/><trkseg>
<trkpt lat="49.801395" lon="4.910263"><time>2026-05-02T21:39:54Z</time></trkpt>
<trkpt lat="49.800566" lon="4.908255"><time>2026-05-02T21:49:54Z</time></trkpt>
</trkseg>
</trk>
<trk>
<name>nvssgi7</name>
<cmt>v</cmt>
<desc>Sugny Chemin n°i7 </desc>
<link href="https://chemins.be/sugny/chemin/i7"/><trkseg>
<trkpt lat="49.789395" lon="4.888283"><time>2026-05-02T21:39:54Z</time></trkpt>
<trkpt lat="49.789465" lon="4.888714"><time>2026-05-02T21:49:54Z</time></trkpt>
<trkpt lat="49.789814" lon="4.889051"><time>2026-05-02T21:59:54Z</time></trkpt>
</trkseg>
</trk>
<trk>
<name>nvssgi8</name>
<cmt>v</cmt>
<desc>Sugny Chemin n°i8 </desc>
<link href="https://chemins.be/sugny/chemin/i8"/><trkseg>
<trkpt lat="49.806533" lon="4.900326"><time>2026-05-02T21:39:54Z</time></trkpt>
<trkpt lat="49.805333" lon="4.902653"><time>2026-05-02T21:49:54Z</time></trkpt>
<trkpt lat="49.803811" lon="4.903180"><time>2026-05-02T21:59:54Z</time></trkpt>
<trkpt lat="49.802438" lon="4.902551"><time>2026-05-02T22:09:54Z</time></trkpt>
<trkpt lat="49.799471" lon="4.900699"><time>2026-05-02T22:19:54Z</time></trkpt>
<trkpt lat="49.798340" lon="4.898380"><time>2026-05-02T22:29:54Z</time></trkpt>
<trkpt lat="49.798151" lon="4.892558"><time>2026-05-02T22:39:54Z</time></trkpt>
<trkpt lat="49.797371" lon="4.890175"><time>2026-05-02T22:49:54Z</time></trkpt>
<trkpt lat="49.796691" lon="4.889292"><time>2026-05-02T22:59:54Z</time></trkpt>
<trkpt lat="49.796155" lon="4.888675"><time>2026-05-02T23:09:54Z</time></trkpt>
<trkpt lat="49.794669" lon="4.887243"><time>2026-05-02T23:19:54Z</time></trkpt>
<trkpt lat="49.793492" lon="4.887021"><time>2026-05-02T23:29:54Z</time></trkpt>
<trkpt lat="49.791999" lon="4.887214"><time>2026-05-02T23:39:54Z</time></trkpt>
<trkpt lat="49.791078" lon="4.888009"><time>2026-05-02T23:49:54Z</time></trkpt>
<trkpt lat="49.790022" lon="4.888887"><time>2026-05-02T23:59:54Z</time></trkpt>
<trkpt lat="49.789139" lon="4.889349"><time>2026-05-03T00:09:54Z</time></trkpt>
<trkpt lat="49.788623" lon="4.888122"><time>2026-05-03T00:19:54Z</time></trkpt>
</trkseg>
</trk>
<trk>
<name>nvssgi9</name>
<cmt>v</cmt>
<desc>Sugny Chemin n°i9 La Chafette</desc>
<link href="https://chemins.be/sugny/chemin/i9"/><trkseg>
<trkpt lat="49.806519" lon="4.869172"><time>2026-05-02T21:39:54Z</time></trkpt>
<trkpt lat="49.805240" lon="4.869492"><time>2026-05-02T21:49:54Z</time></trkpt>
<trkpt lat="49.804503" lon="4.869498"><time>2026-05-02T21:59:54Z</time></trkpt>
<trkpt lat="49.803695" lon="4.869267"><time>2026-05-02T22:09:54Z</time></trkpt>
<trkpt lat="49.802878" lon="4.869009"><time>2026-05-02T22:19:54Z</time></trkpt>
</trkseg>
</trk>
</gpx>